Observation data for Guadalupe Mtns Park on 01/12/2018      Previous  Date  Next       Current Mesonet Observations  Soil Data  Daily Summary Page  Observations in Plain Language
KGU1 120600Z 22005KT 03/M04 A3026 RMK A01 T00311044  RH  058%=      5-min Rain = 0
KGU1 120601Z 22006KT 03/M04 A3026 RMK A01 T00311044  RH  058%=      5-min Rain = 0
KGU1 120602Z 21008KT 03/M04 A3026 RMK A01 T00321044  RH  058%=      5-min Rain = 0
KGU1 120603Z 21007KT 03/M04 A3026 RMK A01 T00321043  RH  058%=      5-min Rain = 0
KGU1 120604Z 22007KT 03/M04 A3026 RMK A01 T00321043  RH  058%=      5-min Rain = 0
KGU1 120605Z 21008KT 03/M04 A3026 RMK A01 T00321042  RH  059%=      5-min Rain = 0
KGU1 120606Z 21008KT 03/M04 A3026 RMK A01 T00331043  RH  058%=      5-min Rain = 0
KGU1 120607Z 20008KT 03/M04 A3026 RMK A01 T00331043  RH  058%=      5-min Rain = 0
KGU1 120608Z 20009KT 03/M04 A3026 RMK A01 T00341042  RH  058%=      5-min Rain = 0
KGU1 120609Z 20007KT 04/M04 A3026 RMK A01 T00351043  RH  057%=      5-min Rain = 0
KGU1 120610Z 20008KT 04/M04 A3026 RMK A01 T00361043  RH  057%=      5-min Rain = 0
KGU1 120611Z 21010KT 04/M04 A3026 RMK A01 T00361043  RH  057%=      5-min Rain = 0
KGU1 120612Z 20008KT 04/M04 A3026 RMK A01 T00361042  RH  057%=      5-min Rain = 0
KGU1 120613Z 20010KT 04/M04 A3026 RMK A01 T00361043  RH  057%=      5-min Rain = 0
KGU1 120614Z 20009KT 04/M04 A3026 RMK A01 T00371043  RH  056%=      5-min Rain = 0
KGU1 120615Z 20008KT 04/M04 A3026 RMK A01 T00371043  RH  057%=      5-min Rain = 0
KGU1 120616Z 20009KT 04/M04 A3025 RMK A01 T00361043  RH  057%=      5-min Rain = 0
KGU1 120617Z 20009KT 04/M04 A3025 RMK A01 T00361042  RH  057%=      5-min Rain = 0
KGU1 120618Z 20010KT 04/M04 A3025 RMK A01 T00351042  RH  058%=      5-min Rain = 0
KGU1 120619Z 20010KT 04/M04 A3025 RMK A01 T00351042  RH  058%=      5-min Rain = 0
KGU1 120620Z 19009KT 04/M04 A3025 RMK A01 T00351042  RH  058%=      5-min Rain = 0
KGU1 120621Z 19010KT 04/M04 A3025 RMK A01 T00351041  RH  058%=      5-min Rain = 0
KGU1 120622Z 20012KT 04/M04 A3025 RMK A01 T00351043  RH  057%=      5-min Rain = 0
KGU1 120623Z 19010KT 04/M04 A3025 RMK A01 T00371043  RH  057%=      5-min Rain = 0
KGU1 120624Z 19011KT 04/M04 A3025 RMK A01 T00381042  RH  057%=      5-min Rain = 0
KGU1 120625Z 19011KT 04/M04 A3025 RMK A01 T00371042  RH  057%=      5-min Rain = 0
KGU1 120626Z 19012KT 04/M04 A3025 RMK A01 T00371041  RH  057%=      5-min Rain = 0
KGU1 120627Z 19012KT 04/M04 A3025 RMK A01 T00371042  RH  057%=      5-min Rain = 0
KGU1 120628Z 19013KT 04/M04 A3025 RMK A01 T00381041  RH  057%=      5-min Rain = 0
KGU1 120629Z 19013KT 04/M04 A3025 RMK A01 T00391041  RH  056%=      5-min Rain = 0
KGU1 120630Z 19011KT 04/M04 A3025 RMK A01 T00391041  RH  057%=      5-min Rain = 0
KGU1 120631Z 20010KT 04/M04 A3025 RMK A01 T00381041  RH  057%=      5-min Rain = 0
KGU1 120632Z 19011KT 04/M04 A3025 RMK A01 T00371041  RH  057%=      5-min Rain = 0
KGU1 120633Z 19011KT 04/M04 A3025 RMK A01 T00371041  RH  057%=      5-min Rain = 0
KGU1 120634Z 19010KT 04/M04 A3025 RMK A01 T00381041  RH  057%=      5-min Rain = 0
KGU1 120635Z 18010KT 04/M04 A3025 RMK A01 T00371041  RH  057%=      5-min Rain = 0
KGU1 120636Z 19012KT 04/M04 A3025 RMK A01 T00371041  RH  058%=      5-min Rain = 0
KGU1 120637Z 19013KT 04/M04 A3025 RMK A01 T00381040  RH  057%=      5-min Rain = 0
KGU1 120638Z 19012KT 04/M04 A3025 RMK A01 T00381039  RH  057%=      5-min Rain = 0
KGU1 120639Z 19014KT 04/M04 A3025 RMK A01 T00391040  RH  057%=      5-min Rain = 0
KGU1 120640Z 19013KT 04/M04 A3025 RMK A01 T00401042  RH  055%=      5-min Rain = 0
KGU1 120641Z 20014KT 04/M04 A3025 RMK A01 T00411042  RH  055%=      5-min Rain = 0
KGU1 120642Z 20012KT 04/M04 A3025 RMK A01 T00411040  RH  056%=      5-min Rain = 0
KGU1 120643Z 20013KT 04/M04 A3025 RMK A01 T00411041  RH  056%=      5-min Rain = 0
KGU1 120644Z 19013KT 04/M04 A3024 RMK A01 T00411043  RH  055%=      5-min Rain = 0
KGU1 120645Z 20011KT 04/M04 A3024 RMK A01 T00411043  RH  055%=      5-min Rain = 0
KGU1 120646Z 20013KT 04/M04 A3025 RMK A01 T00401043  RH  055%=      5-min Rain = 0
KGU1 120647Z 20010KT 04/M04 A3025 RMK A01 T00391042  RH  056%=      5-min Rain = 0
KGU1 120648Z 20013KT 04/M04 A3024 RMK A01 T00371042  RH  057%=      5-min Rain = 0
KGU1 120649Z 20013KT 04/M04 A3025 RMK A01 T00371042  RH  057%=      5-min Rain = 0
KGU1 120650Z 19009KT 04/M04 A3025 RMK A01 T00371042  RH  057%=      5-min Rain = 0
KGU1 120651Z 20013KT 04/M04 A3025 RMK A01 T00361042  RH  057%=      5-min Rain = 0
KGU1 120652Z 19014KT 04/M04 A3024 RMK A01 T00371042  RH  057%=      5-min Rain = 0
KGU1 120653Z 19015KT 04/M04 A3024 RMK A01 T00371043  RH  057%=      5-min Rain = 0
KGU1 120654Z 19012KT 04/M04 A3025 RMK A01 T00371042  RH  057%=      5-min Rain = 0
KGU1 120655Z 19016KT 04/M04 A3024 RMK A01 T00371042  RH  057%=      5-min Rain = 0
KGU1 120656Z 19015KT 04/M04 A3024 RMK A01 T00381042  RH  056%=      5-min Rain = 0
KGU1 120657Z 19013KT 04/M04 A3025 RMK A01 T00381042  RH  056%=      5-min Rain = 0
KGU1 120658Z 19013KT 04/M04 A3024 RMK A01 T00371042  RH  057%=      5-min Rain = 0
KGU1 120659Z 19012KT 04/M04 A3025 RMK A01 T00371042  RH  057%=      5-min Rain = 0
KGU1 120700Z 19011KT 04/M04 A3025 RMK A01 T00361041  RH  057%=      5-min Rain = 0
KGU1 120701Z 19011KT 04/M04 A3024 RMK A01 T00361042  RH  057%=      5-min Rain = 0
KGU1 120702Z 19014KT 04/M04 A3024 RMK A01 T00351042  RH  058%=      5-min Rain = 0
KGU1 120703Z 19012KT 04/M04 A3025 RMK A01 T00361043  RH  057%=      5-min Rain = 0
KGU1 120704Z 20011KT 04/M04 A3025 RMK A01 T00351043  RH  057%=      5-min Rain = 0
KGU1 120705Z 19011KT 04/M04 A3025 RMK A01 T00351043  RH  057%=      5-min Rain = 0
KGU1 120706Z 18010KT 03/M04 A3025 RMK A01 T00341043  RH  057%=      5-min Rain = 0
KGU1 120707Z 19010KT 03/M04 A3025 RMK A01 T00341043  RH  058%=      5-min Rain = 0
KGU1 120708Z 19014KT 03/M04 A3024 RMK A01 T00331043  RH  058%=      5-min Rain = 0
KGU1 120709Z 18013G18KT 03/M04 A3024 RMK A01 T00341044  RH  057%=      5-min Rain = 0
KGU1 120710Z 17012KT 04/M04 A3024 RMK A01 T00351044  RH  057%=      5-min Rain = 0
KGU1 120711Z 17010KT 03/M04 A3024 RMK A01 T00341043  RH  057%=      5-min Rain = 0
KGU1 120712Z 19014KT 03/M04 A3024 RMK A01 T00331043  RH  058%=      5-min Rain = 0
KGU1 120713Z 19013KT 03/M04 A3024 RMK A01 T00331044  RH  058%=      5-min Rain = 0
KGU1 120714Z 19011KT 03/M04 A3024 RMK A01 T00331044  RH  058%=      5-min Rain = 0
KGU1 120715Z 19013KT 03/M04 A3024 RMK A01 T00321043  RH  058%=      5-min Rain = 0
KGU1 120716Z 19012KT 03/M04 A3024 RMK A01 T00321043  RH  058%=      5-min Rain = 0
KGU1 120717Z 19014KT 03/M04 A3024 RMK A01 T00321044  RH  058%=      5-min Rain = 0
KGU1 120718Z 18012KT 03/M04 A3024 RMK A01 T00321044  RH  058%=      5-min Rain = 0
KGU1 120719Z 19014KT 03/M05 A3024 RMK A01 T00321045  RH  058%=      5-min Rain = 0
KGU1 120720Z 18012KT 03/M04 A3024 RMK A01 T00331044  RH  058%=      5-min Rain = 0
KGU1 120721Z 19014KT 03/M05 A3024 RMK A01 T00321045  RH  057%=      5-min Rain = 0
KGU1 120722Z 18013KT 03/M05 A3024 RMK A01 T00331045  RH  057%=      5-min Rain = 0
KGU1 120723Z 19013KT 03/M05 A3024 RMK A01 T00321045  RH  057%=      5-min Rain = 0
KGU1 120724Z 19011KT 03/M05 A3024 RMK A01 T00321045  RH  058%=      5-min Rain = 0
KGU1 120725Z 19011KT 03/M05 A3024 RMK A01 T00311045  RH  058%=      5-min Rain = 0
KGU1 120726Z 20010KT 03/M05 A3024 RMK A01 T00311046  RH  058%=      5-min Rain = 0
KGU1 120727Z 20009KT 03/M05 A3024 RMK A01 T00311048  RH  056%=      5-min Rain = 0
KGU1 120728Z 20010KT 03/M05 A3024 RMK A01 T00311047  RH  057%=      5-min Rain = 0
KGU1 120729Z 20010KT 03/M05 A3024 RMK A01 T00311045  RH  058%=      5-min Rain = 0
KGU1 120730Z 21013G18KT 03/M05 A3024 RMK A01 T00311045  RH  058%=      5-min Rain = 0
KGU1 120731Z 20013KT 03/M05 A3023 RMK A01 T00311045  RH  058%=      5-min Rain = 0
KGU1 120732Z 21012G17KT 03/M05 A3023 RMK A01 T00311045  RH  058%=      5-min Rain = 0
KGU1 120733Z 21012KT 03/M05 A3023 RMK A01 T00321046  RH  057%=      5-min Rain = 0
KGU1 120734Z 21015KT 03/M05 A3023 RMK A01 T00321047  RH  057%=      5-min Rain = 0
KGU1 120735Z 20014KT 03/M05 A3023 RMK A01 T00321048  RH  056%=      5-min Rain = 0
KGU1 120736Z 21015KT 03/M05 A3023 RMK A01 T00331048  RH  056%=      5-min Rain = 0
KGU1 120737Z 20012KT 03/M05 A3023 RMK A01 T00321047  RH  057%=      5-min Rain = 0
KGU1 120738Z 21014KT 03/M05 A3023 RMK A01 T00321047  RH  057%=      5-min Rain = 0
KGU1 120739Z 21014KT 03/M05 A3023 RMK A01 T00311048  RH  057%=      5-min Rain = 0
KGU1 120740Z 20015KT 03/M05 A3023 RMK A01 T00321048  RH  057%=      5-min Rain = 0
KGU1 120741Z 21013KT 03/M05 A3023 RMK A01 T00311048  RH  056%=      5-min Rain = 0
KGU1 120742Z 21014KT 03/M05 A3023 RMK A01 T00311048  RH  057%=      5-min Rain = 0
KGU1 120743Z 20013KT 03/M05 A3023 RMK A01 T00301048  RH  057%=      5-min Rain = 0
KGU1 120744Z 21013KT 03/M05 A3024 RMK A01 T00291048  RH  057%=      5-min Rain = 0
KGU1 120745Z 20012G17KT 03/M05 A3024 RMK A01 T00291048  RH  058%=      5-min Rain = 0
KGU1 120746Z 20015KT 03/M05 A3023 RMK A01 T00291049  RH  057%=      5-min Rain = 0
KGU1 120747Z 19014KT 03/M05 A3023 RMK A01 T00291049  RH  057%=      5-min Rain = 0
KGU1 120748Z 20013KT 03/M05 A3023 RMK A01 T00291049  RH  057%=      5-min Rain = 0
KGU1 120749Z 19012KT 03/M05 A3023 RMK A01 T00281049  RH  057%=      5-min Rain = 0
KGU1 120750Z 19012KT 03/M05 A3023 RMK A01 T00281049  RH  058%=      5-min Rain = 0
KGU1 120751Z 20014KT 03/M05 A3023 RMK A01 T00271049  RH  058%=      5-min Rain = 0
KGU1 120752Z 20012KT 03/M05 A3023 RMK A01 T00261049  RH  058%=      5-min Rain = 0
KGU1 120753Z 20011KT 03/M05 A3023 RMK A01 T00261049  RH  059%=      5-min Rain = 0
KGU1 120754Z 19011KT 03/M05 A3023 RMK A01 T00251048  RH  059%=      5-min Rain = 0
KGU1 120755Z 19013KT 03/M05 A3023 RMK A01 T00251049  RH  059%=      5-min Rain = 0
KGU1 120756Z 19014KT 03/M05 A3023 RMK A01 T00251049  RH  059%=      5-min Rain = 0
KGU1 120757Z 20014KT 03/M05 A3023 RMK A01 T00261049  RH  059%=      5-min Rain = 0
KGU1 120758Z 20012KT 03/M05 A3023 RMK A01 T00261049  RH  059%=      5-min Rain = 0
KGU1 120759Z 20013KT 03/M05 A3023 RMK A01 T00261049  RH  059%=      5-min Rain = 0
KGU1 120800Z 20011G17KT 03/M05 A3023 RMK A01 T00261049  RH  059%=      5-min Rain = 0
KGU1 120801Z 19009KT 03/M05 A3023 RMK A01 T00261048  RH  059%=      5-min Rain = 0
KGU1 120802Z 20012KT 03/M05 A3023 RMK A01 T00261047  RH  059%=      5-min Rain = 0
KGU1 120803Z 20013KT 03/M05 A3023 RMK A01 T00251048  RH  059%=      5-min Rain = 0
KGU1 120804Z 20011KT 03/M05 A3023 RMK A01 T00261048  RH  059%=      5-min Rain = 0
KGU1 120805Z 20010KT 03/M05 A3023 RMK A01 T00261048  RH  059%=      5-min Rain = 0
KGU1 120806Z 19013KT 03/M05 A3023 RMK A01 T00261047  RH  059%=      5-min Rain = 0
KGU1 120807Z 20012KT 03/M05 A3023 RMK A01 T00261047  RH  059%=      5-min Rain = 0
KGU1 120808Z 20012G18KT 03/M05 A3023 RMK A01 T00261047  RH  059%=      5-min Rain = 0
KGU1 120809Z 20014KT 03/M05 A3023 RMK A01 T00271046  RH  059%=      5-min Rain = 0
KGU1 120810Z 20012KT 03/M05 A3023 RMK A01 T00271046  RH  059%=      5-min Rain = 0
KGU1 120811Z 19010G15KT 03/M05 A3023 RMK A01 T00281046  RH  059%=      5-min Rain = 0
KGU1 120812Z 19011KT 03/M05 A3023 RMK A01 T00281046  RH  059%=      5-min Rain = 0
KGU1 120813Z 20011KT 03/M05 A3023 RMK A01 T00271046  RH  059%=      5-min Rain = 0
KGU1 120814Z 21011KT 03/M05 A3023 RMK A01 T00271046  RH  059%=      5-min Rain = 0
KGU1 120815Z 20013KT 03/M05 A3023 RMK A01 T00281046  RH  059%=      5-min Rain = 0
KGU1 120816Z 19012KT 03/M05 A3023 RMK A01 T00291046  RH  059%=      5-min Rain = 0
KGU1 120817Z 20011KT 03/M05 A3023 RMK A01 T00291045  RH  059%=      5-min Rain = 0
KGU1 120818Z 20011KT 03/M05 A3023 RMK A01 T00291045  RH  059%=      5-min Rain = 0
KGU1 120819Z 20010KT 03/M04 A3023 RMK A01 T00301044  RH  059%=      5-min Rain = 0
KGU1 120820Z 20012KT 03/M05 A3023 RMK A01 T00301045  RH  059%=      5-min Rain = 0
KGU1 120821Z 21012KT 03/M05 A3023 RMK A01 T00301045  RH  058%=      5-min Rain = 0
KGU1 120822Z 19011KT 03/M05 A3023 RMK A01 T00311045  RH  058%=      5-min Rain = 0
KGU1 120823Z 20010KT 03/M04 A3023 RMK A01 T00311044  RH  058%=      5-min Rain = 0
KGU1 120824Z 21009KT 03/M05 A3023 RMK A01 T00311045  RH  058%=      5-min Rain = 0
KGU1 120825Z 20011G16KT 03/M05 A3023 RMK A01 T00301045  RH  058%=      5-min Rain = 0
KGU1 120826Z 20010KT 03/M04 A3023 RMK A01 T00311044  RH  058%=      5-min Rain = 0
KGU1 120827Z 19012KT 03/M04 A3023 RMK A01 T00311044  RH  058%=      5-min Rain = 0
KGU1 120828Z 20012KT 03/M04 A3023 RMK A01 T00311044  RH  059%=      5-min Rain = 0
KGU1 120829Z 19013KT 03/M04 A3023 RMK A01 T00311043  RH  059%=      5-min Rain = 0
KGU1 120830Z 20014KT 03/M04 A3023 RMK A01 T00321044  RH  058%=      5-min Rain = 0
KGU1 120831Z 20014KT 03/M04 A3023 RMK A01 T00321044  RH  058%=      5-min Rain = 0
KGU1 120832Z 20013KT 03/M04 A3023 RMK A01 T00331044  RH  058%=      5-min Rain = 0
KGU1 120833Z 20012KT 03/M04 A3023 RMK A01 T00331044  RH  058%=      5-min Rain = 0
KGU1 120834Z 20010KT 03/M04 A3023 RMK A01 T00321043  RH  058%=      5-min Rain = 0
KGU1 120835Z 20013KT 03/M04 A3023 RMK A01 T00321044  RH  058%=      5-min Rain = 0
KGU1 120836Z 21012KT 03/M04 A3023 RMK A01 T00321044  RH  058%=      5-min Rain = 0
KGU1 120837Z 20011KT 03/M04 A3023 RMK A01 T00321044  RH  058%=      5-min Rain = 0
KGU1 120838Z 20013KT 03/M04 A3023 RMK A01 T00321044  RH  058%=      5-min Rain = 0
KGU1 120839Z 20012KT 03/M04 A3023 RMK A01 T00321044  RH  058%=      5-min Rain = 0
KGU1 120840Z 19012G17KT 03/M04 A3023 RMK A01 T00331044  RH  058%=      5-min Rain = 0
KGU1 120841Z 20011KT 03/M04 A3023 RMK A01 T00321044  RH  058%=      5-min Rain = 0
KGU1 120842Z 20012KT 03/M04 A3023 RMK A01 T00321044  RH  058%=      5-min Rain = 0
KGU1 120843Z 19013KT 03/M04 A3023 RMK A01 T00321043  RH  058%=      5-min Rain = 0
KGU1 120844Z 20011KT 03/M04 A3023 RMK A01 T00321044  RH  058%=      5-min Rain = 0
KGU1 120845Z 20012KT 03/M04 A3023 RMK A01 T00321044  RH  058%=      5-min Rain = 0
KGU1 120846Z 19013KT 03/M05 A3023 RMK A01 T00311045  RH  058%=      5-min Rain = 0
KGU1 120847Z 20015KT 03/M04 A3022 RMK A01 T00321044  RH  058%=      5-min Rain = 0
KGU1 120848Z 20013KT 03/M04 A3023 RMK A01 T00321044  RH  058%=      5-min Rain = 0
KGU1 120849Z 19012KT 03/M04 A3022 RMK A01 T00321044  RH  058%=      5-min Rain = 0
KGU1 120850Z 19011KT 03/M05 A3022 RMK A01 T00321045  RH  057%=      5-min Rain = 0
KGU1 120851Z 19014KT 03/M05 A3022 RMK A01 T00321045  RH  057%=      5-min Rain = 0
KGU1 120852Z 19014KT 03/M05 A3022 RMK A01 T00331045  RH  057%=      5-min Rain = 0
KGU1 120853Z 19012KT 03/M04 A3022 RMK A01 T00321044  RH  058%=      5-min Rain = 0
KGU1 120854Z 20012KT 03/M05 A3022 RMK A01 T00331045  RH  057%=      5-min Rain = 0
KGU1 120855Z 20012KT 03/M05 A3022 RMK A01 T00321045  RH  057%=      5-min Rain = 0
KGU1 120856Z 20012G17KT 03/M05 A3022 RMK A01 T00321045  RH  057%=      5-min Rain = 0
KGU1 120857Z 19015KT 03/M05 A3022 RMK A01 T00321046  RH  057%=      5-min Rain = 0
KGU1 120858Z 19012KT 03/M05 A3022 RMK A01 T00331046  RH  057%=      5-min Rain = 0
KGU1 120859Z 20012KT 03/M05 A3022 RMK A01 T00321045  RH  058%=      5-min Rain = 0
KGU1 120900Z 21012KT 03/M05 A3022 RMK A01 T00321046  RH  057%=      5-min Rain = 0
KGU1 120901Z 20009KT 03/M05 A3022 RMK A01 T00321047  RH  057%=      5-min Rain = 0
KGU1 120902Z 20011KT 03/M05 A3022 RMK A01 T00311047  RH  057%=      5-min Rain = 0
KGU1 120903Z 20011KT 03/M05 A3022 RMK A01 T00311046  RH  058%=      5-min Rain = 0
KGU1 120904Z 21013KT 03/M05 A3022 RMK A01 T00311045  RH  058%=      5-min Rain = 0
KGU1 120905Z 20011KT 03/M05 A3022 RMK A01 T00311048  RH  057%=      5-min Rain = 0
KGU1 120906Z 20011KT 03/M05 A3022 RMK A01 T00321048  RH  057%=      5-min Rain = 0
KGU1 120907Z 20011KT 03/M05 A3022 RMK A01 T00311045  RH  058%=      5-min Rain = 0
KGU1 120908Z 20010KT 03/M05 A3022 RMK A01 T00311046  RH  058%=      5-min Rain = 0
KGU1 120909Z 20012KT 03/M05 A3022 RMK A01 T00311047  RH  057%=      5-min Rain = 0
KGU1 120910Z 21012KT 03/M05 A3022 RMK A01 T00311047  RH  057%=      5-min Rain = 0
KGU1 120911Z 20009KT 03/M05 A3022 RMK A01 T00311046  RH  058%=      5-min Rain = 0
KGU1 120912Z 20011KT 03/M05 A3022 RMK A01 T00301046  RH  058%=      5-min Rain = 0
KGU1 120913Z 20010KT 03/M05 A3022 RMK A01 T00301045  RH  059%=      5-min Rain = 0
KGU1 120914Z 19014KT 03/M05 A3022 RMK A01 T00301045  RH  059%=      5-min Rain = 0
KGU1 120915Z 19012KT 03/M04 A3022 RMK A01 T00301044  RH  059%=      5-min Rain = 0
KGU1 120916Z 19015KT 03/M05 A3022 RMK A01 T00301045  RH  058%=      5-min Rain = 0
KGU1 120917Z 20012KT 03/M05 A3022 RMK A01 T00301049  RH  057%=      5-min Rain = 0
KGU1 120918Z 19011KT 03/M05 A3021 RMK A01 T00311049  RH  056%=      5-min Rain = 0
KGU1 120919Z 20011KT 03/M05 A3021 RMK A01 T00301047  RH  057%=      5-min Rain = 0
KGU1 120920Z 20012G17KT 03/M05 A3021 RMK A01 T00301047  RH  058%=      5-min Rain = 0
KGU1 120921Z 20011G16KT 03/M05 A3021 RMK A01 T00291047  RH  058%=      5-min Rain = 0
KGU1 120922Z 20014G19KT 03/M05 A3021 RMK A01 T00291045  RH  059%=      5-min Rain = 0
KGU1 120923Z 20015KT 03/M05 A3021 RMK A01 T00281045  RH  059%=      5-min Rain = 0
KGU1 120924Z 20012KT 03/M05 A3021 RMK A01 T00271047  RH  059%=      5-min Rain = 0
KGU1 120925Z 19013KT 03/M05 A3021 RMK A01 T00261048  RH  059%=      5-min Rain = 0
KGU1 120926Z 19017KT 03/M05 A3021 RMK A01 T00271046  RH  059%=      5-min Rain = 0
KGU1 120927Z 19013G18KT 03/M05 A3021 RMK A01 T00261046  RH  059%=      5-min Rain = 0
KGU1 120928Z 19014KT 03/M05 A3021 RMK A01 T00251047  RH  060%=      5-min Rain = 0
KGU1 120929Z 20012G17KT 03/M05 A3021 RMK A01 T00251048  RH  059%=      5-min Rain = 0
KGU1 120930Z 20009KT 03/M05 A3022 RMK A01 T00251047  RH  060%=      5-min Rain = 0
KGU1 120931Z 20011KT 03/M05 A3022 RMK A01 T00251046  RH  060%=      5-min Rain = 0
KGU1 120932Z 20013KT 03/M05 A3022 RMK A01 T00251046  RH  060%=      5-min Rain = 0
KGU1 120933Z 19011KT 03/M05 A3022 RMK A01 T00251046  RH  060%=      5-min Rain = 0
KGU1 120934Z 20012KT 02/M05 A3022 RMK A01 T00241047  RH  060%=      5-min Rain = 0
KGU1 120935Z 20008KT 02/M05 A3022 RMK A01 T00241046  RH  061%=      5-min Rain = 0
KGU1 120936Z 20010KT 02/M05 A3022 RMK A01 T00231046  RH  061%=      5-min Rain = 0
KGU1 120937Z 19010KT 02/M05 A3022 RMK A01 T00231047  RH  061%=      5-min Rain = 0
KGU1 120938Z 20009KT 02/M05 A3022 RMK A01 T00231046  RH  061%=      5-min Rain = 0
KGU1 120939Z 21010KT 02/M05 A3022 RMK A01 T00231046  RH  061%=      5-min Rain = 0
KGU1 120940Z 20008KT 02/M05 A3022 RMK A01 T00231046  RH  061%=      5-min Rain = 0
KGU1 120941Z 21008KT 02/M05 A3022 RMK A01 T00231046  RH  061%=      5-min Rain = 0
KGU1 120942Z 21010KT 02/M05 A3022 RMK A01 T00231046  RH  061%=      5-min Rain = 0
KGU1 120943Z 21009KT 03/M05 A3022 RMK A01 T00251049  RH  059%=      5-min Rain = 0
KGU1 120944Z 20010KT 03/M05 A3022 RMK A01 T00261047  RH  059%=      5-min Rain = 0
KGU1 120945Z 20010KT 03/M05 A3022 RMK A01 T00261046  RH  059%=      5-min Rain = 0
KGU1 120946Z 21009KT 03/M05 A3022 RMK A01 T00261047  RH  059%=      5-min Rain = 0
KGU1 120947Z 20009KT 03/M05 A3022 RMK A01 T00261049  RH  059%=      5-min Rain = 0
KGU1 120948Z 22007KT 03/M05 A3022 RMK A01 T00261048  RH  059%=      5-min Rain = 0
KGU1 120949Z 22009KT 03/M05 A3022 RMK A01 T00261049  RH  058%=      5-min Rain = 0
KGU1 120950Z 22011KT 03/M05 A3022 RMK A01 T00271053  RH  056%=      5-min Rain = 0
KGU1 120951Z 20009KT 03/M05 A3022 RMK A01 T00301053  RH  055%=      5-min Rain = 0
KGU1 120952Z 20005KT 03/M05 A3022 RMK A01 T00301050  RH  056%=      5-min Rain = 0
KGU1 120953Z 19009KT 03/M05 A3022 RMK A01 T00291049  RH  057%=      5-min Rain = 0
KGU1 120954Z 20010KT 03/M05 A3022 RMK A01 T00281049  RH  058%=      5-min Rain = 0
KGU1 120955Z 21009KT 03/M05 A3022 RMK A01 T00281051  RH  057%=      5-min Rain = 0
KGU1 120956Z 22007KT 03/M05 A3022 RMK A01 T00281049  RH  057%=      5-min Rain = 0
KGU1 120957Z 21010KT 03/M05 A3022 RMK A01 T00271049  RH  058%=      5-min Rain = 0
KGU1 120958Z 20011KT 03/M05 A3022 RMK A01 T00271048  RH  058%=      5-min Rain = 0
KGU1 120959Z 20010KT 03/M05 A3022 RMK A01 T00271048  RH  058%=      5-min Rain = 0
KGU1 121000Z 20013KT 03/M05 A3022 RMK A01 T00261047  RH  059%=      5-min Rain = 0
KGU1 121001Z 20013KT 03/M05 A3022 RMK A01 T00251048  RH  059%=      5-min Rain = 0
KGU1 121002Z 21011KT 03/M05 A3022 RMK A01 T00251048  RH  059%=      5-min Rain = 0
KGU1 121003Z 21012KT 03/M05 A3022 RMK A01 T00261051  RH  058%=      5-min Rain = 0
KGU1 121004Z 20011KT 03/M05 A3022 RMK A01 T00271050  RH  057%=      5-min Rain = 0
KGU1 121005Z 20009KT 03/M05 A3022 RMK A01 T00271051  RH  057%=      5-min Rain = 0
KGU1 121006Z 20007KT 03/M05 A3022 RMK A01 T00271052  RH  057%=      5-min Rain = 0
KGU1 121007Z 20010KT 03/M05 A3021 RMK A01 T00271051  RH  057%=      5-min Rain = 0
KGU1 121008Z 20010KT 03/M05 A3021 RMK A01 T00271049  RH  058%=      5-min Rain = 0
KGU1 121009Z 20010KT 03/M05 A3021 RMK A01 T00261048  RH  059%=      5-min Rain = 0
KGU1 121010Z 20009KT 03/M05 A3021 RMK A01 T00261048  RH  059%=      5-min Rain = 0
KGU1 121011Z 20009KT 03/M05 A3021 RMK A01 T00251050  RH  058%=      5-min Rain = 0
KGU1 121012Z 21007KT 03/M05 A3021 RMK A01 T00261051  RH  058%=      5-min Rain = 0
KGU1 121013Z 25004KT 03/M05 A3022 RMK A01 T00261052  RH  057%=      5-min Rain = 0
KGU1 121014Z 28005KT 03/M05 A3022 RMK A01 T00261051  RH  057%=      5-min Rain = 0
KGU1 121015Z 29006KT 02/M05 A3022 RMK A01 T00241049  RH  059%=      5-min Rain = 0
KGU1 121016Z 26005KT 02/M05 A3022 RMK A01 T00211050  RH  060%=      5-min Rain = 0
KGU1 121017Z 24004KT 02/M05 A3021 RMK A01 T00201051  RH  060%=      5-min Rain = 0
KGU1 121018Z 25005KT 02/M05 A3021 RMK A01 T00201051  RH  060%=      5-min Rain = 0
KGU1 121019Z 26005KT 02/M05 A3021 RMK A01 T00201049  RH  061%=      5-min Rain = 0
KGU1 121020Z 23005KT 02/M05 A3021 RMK A01 T00191050  RH  061%=      5-min Rain = 0
KGU1 121021Z 22007KT 02/M05 A3021 RMK A01 T00201052  RH  060%=      5-min Rain = 0
KGU1 121022Z 25005KT 02/M05 A3021 RMK A01 T00221052  RH  059%=      5-min Rain = 0
KGU1 121023Z 25004KT 02/M05 A3021 RMK A01 T00211050  RH  060%=      5-min Rain = 0
KGU1 121024Z 25005KT 02/M05 A3021 RMK A01 T00211052  RH  059%=      5-min Rain = 0
KGU1 121025Z 24007KT 02/M05 A3021 RMK A01 T00221051  RH  059%=      5-min Rain = 0
KGU1 121026Z 22007KT 02/M05 A3021 RMK A01 T00221051  RH  059%=      5-min Rain = 0
KGU1 121027Z 21008KT 02/M05 A3021 RMK A01 T00231052  RH  058%=      5-min Rain = 0
KGU1 121028Z 21008KT 02/M05 A3021 RMK A01 T00241053  RH  058%=      5-min Rain = 0
KGU1 121029Z 22007KT 02/M05 A3021 RMK A01 T00241053  RH  057%=      5-min Rain = 0
KGU1 121030Z 22008KT 02/M05 A3021 RMK A01 T00241051  RH  058%=      5-min Rain = 0
KGU1 121031Z 22009KT 02/M05 A3021 RMK A01 T00241050  RH  059%=      5-min Rain = 0
KGU1 121032Z 21010KT 02/M05 A3021 RMK A01 T00231051  RH  059%=      5-min Rain = 0
KGU1 121033Z 21010KT 02/M05 A302 RMK A01 T00241052  RH  058%=      5-min Rain = 0
KGU1 121034Z 20012KT 02/M05 A302 RMK A01 T00241051  RH  058%=      5-min Rain = 0
KGU1 121035Z 19012KT 02/M05 A302 RMK A01 T00241052  RH  058%=      5-min Rain = 0
KGU1 121036Z 20010KT 03/M05 A302 RMK A01 T00251054  RH  057%=      5-min Rain = 0
KGU1 121037Z 21008KT 03/M06 A302 RMK A01 T00271056  RH  055%=      5-min Rain = 0
KGU1 121038Z 23006KT 03/M06 A3021 RMK A01 T00271055  RH  055%=      5-min Rain = 0
KGU1 121039Z 21009KT 03/M06 A302 RMK A01 T00281055  RH  055%=      5-min Rain = 0
KGU1 121040Z 21009KT 03/M05 A302 RMK A01 T00271053  RH  056%=      5-min Rain = 0
KGU1 121041Z 21010KT 03/M05 A302 RMK A01 T00261054  RH  056%=      5-min Rain = 0
KGU1 121042Z 22008KT 03/M05 A302 RMK A01 T00261052  RH  057%=      5-min Rain = 0
KGU1 121043Z 22007KT 03/M05 A302 RMK A01 T00251052  RH  058%=      5-min Rain = 0
KGU1 121044Z 22009KT 02/M05 A302 RMK A01 T00241051  RH  058%=      5-min Rain = 0
KGU1 121045Z 21010KT 02/M05 A302 RMK A01 T00231053  RH  058%=      5-min Rain = 0
KGU1 121046Z 20008KT 02/M05 A302 RMK A01 T00241054  RH  057%=      5-min Rain = 0
KGU1 121047Z 22010KT 03/M06 A302 RMK A01 T00251057  RH  055%=      5-min Rain = 0
KGU1 121048Z 22009KT 03/M06 A302 RMK A01 T00271055  RH  055%=      5-min Rain = 0
KGU1 121049Z 21010KT 03/M06 A302 RMK A01 T00271056  RH  055%=      5-min Rain = 0
KGU1 121050Z 21012KT 03/M06 A302 RMK A01 T00281055  RH  055%=      5-min Rain = 0
KGU1 121051Z 20012KT 03/M06 A3019 RMK A01 T00281055  RH  055%=      5-min Rain = 0
KGU1 121052Z 20011KT 03/M06 A3019 RMK A01 T00281056  RH  054%=      5-min Rain = 0
KGU1 121053Z 20012KT 03/M06 A3019 RMK A01 T00291058  RH  053%=      5-min Rain = 0
KGU1 121054Z 20010KT 03/M06 A3019 RMK A01 T00301056  RH  054%=      5-min Rain = 0
KGU1 121055Z 21012KT 03/M05 A3019 RMK A01 T00291054  RH  055%=      5-min Rain = 0
KGU1 121056Z 21014KT 03/M05 A3018 RMK A01 T00281054  RH  055%=      5-min Rain = 0
KGU1 121057Z 20010KT 03/M05 A3018 RMK A01 T00271053  RH  056%=      5-min Rain = 0
KGU1 121058Z 22009KT 03/M05 A3018 RMK A01 T00261054  RH  056%=      5-min Rain = 0
KGU1 121059Z 20013KT 03/M06 A3018 RMK A01 T00261055  RH  056%=      5-min Rain = 0
KGU1 121100Z 21013KT 03/M05 A3018 RMK A01 T00261054  RH  056%=      5-min Rain = 0
KGU1 121101Z 20011KT 03/M05 A3018 RMK A01 T00261054  RH  056%=      5-min Rain = 0
KGU1 121102Z 21012KT 03/M05 A3018 RMK A01 T00261054  RH  056%=      5-min Rain = 0
KGU1 121103Z 21011KT 03/M05 A3018 RMK A01 T00261054  RH  056%=      5-min Rain = 0
KGU1 121104Z 20012KT 03/M05 A3018 RMK A01 T00251052  RH  057%=      5-min Rain = 0
KGU1 121105Z 21011KT 02/M05 A3018 RMK A01 T00241052  RH  058%=      5-min Rain = 0
KGU1 121106Z 21012KT 02/M05 A3018 RMK A01 T00241054  RH  057%=      5-min Rain = 0
KGU1 121107Z 20011KT 02/M05 A3017 RMK A01 T00241052  RH  058%=      5-min Rain = 0
KGU1 121108Z 20011G16KT 02/M05 A3017 RMK A01 T00231051  RH  059%=      5-min Rain = 0
KGU1 121109Z 20011KT 02/M05 A3017 RMK A01 T00221052  RH  058%=      5-min Rain = 0
KGU1 121110Z 21007KT 02/M05 A3018 RMK A01 T00221053  RH  058%=      5-min Rain = 0
KGU1 121111Z 20011KT 02/M06 A3017 RMK A01 T00221055  RH  057%=      5-min Rain = 0
KGU1 121112Z 21008KT 02/M05 A3018 RMK A01 T00231054  RH  057%=      5-min Rain = 0
KGU1 121113Z 21008KT 02/M05 A3018 RMK A01 T00231054  RH  057%=      5-min Rain = 0
KGU1 121114Z 21010KT 02/M06 A3018 RMK A01 T00231056  RH  056%=      5-min Rain = 0
KGU1 121115Z 23008KT 02/M06 A3018 RMK A01 T00241057  RH  056%=      5-min Rain = 0
KGU1 121116Z 20011KT 02/M06 A3018 RMK A01 T00241057  RH  055%=      5-min Rain = 0
KGU1 121117Z 20010KT 03/M06 A3018 RMK A01 T00251057  RH  055%=      5-min Rain = 0
KGU1 121118Z 20012KT 03/M06 A3018 RMK A01 T00251057  RH  055%=      5-min Rain = 0
KGU1 121119Z 19011KT 03/M06 A3018 RMK A01 T00261057  RH  055%=      5-min Rain = 0
KGU1 121120Z 19010KT 03/M06 A3018 RMK A01 T00271061  RH  053%=      5-min Rain = 0
KGU1 121121Z 19010KT 03/M06 A3018 RMK A01 T00301062  RH  051%=      5-min Rain = 0
KGU1 121122Z 19010KT 03/M06 A3018 RMK A01 T00301058  RH  053%=      5-min Rain = 0
KGU1 121123Z 19008KT 03/M06 A3018 RMK A01 T00301058  RH  053%=      5-min Rain = 0
KGU1 121124Z 19007KT 03/M06 A3018 RMK A01 T00291059  RH  053%=      5-min Rain = 0
KGU1 121125Z 19010KT 03/M06 A3018 RMK A01 T00291060  RH  052%=      5-min Rain = 0
KGU1 121126Z 20006KT 03/M06 A3018 RMK A01 T00301061  RH  052%=      5-min Rain = 0
KGU1 121127Z 19010KT 03/M06 A3018 RMK A01 T00301061  RH  052%=      5-min Rain = 0
KGU1 121128Z 20007KT 03/M06 A3018 RMK A01 T00301061  RH  052%=      5-min Rain = 0
KGU1 121129Z 20009KT 03/M06 A3018 RMK A01 T00301060  RH  052%=      5-min Rain = 0
KGU1 121130Z 20012KT 03/M06 A3018 RMK A01 T00301059  RH  053%=      5-min Rain = 0
KGU1 121131Z 20010KT 03/M06 A3018 RMK A01 T00291060  RH  053%=      5-min Rain = 0
KGU1 121132Z 20008KT 03/M06 A3018 RMK A01 T00291059  RH  053%=      5-min Rain = 0
KGU1 121133Z 20009KT 03/M06 A3018 RMK A01 T00291061  RH  052%=      5-min Rain = 0
KGU1 121134Z 20011KT 03/M06 A3018 RMK A01 T00301061  RH  052%=      5-min Rain = 0
KGU1 121135Z 19012KT 03/M06 A3018 RMK A01 T00311061  RH  051%=      5-min Rain = 0
KGU1 121136Z 20011KT 03/M06 A3018 RMK A01 T00321063  RH  050%=      5-min Rain = 0
KGU1 121137Z 19012KT 03/M07 A3017 RMK A01 T00341065  RH  049%=      5-min Rain = 0
KGU1 121138Z 21007G12KT 04/M06 A3017 RMK A01 T00351064  RH  049%=      5-min Rain = 0
KGU1 121139Z 19008KT 04/M06 A3017 RMK A01 T00351063  RH  049%=      5-min Rain = 0
KGU1 121140Z 19011KT 03/M06 A3018 RMK A01 T00341063  RH  050%=      5-min Rain = 0
KGU1 121141Z 20010KT 03/M06 A3018 RMK A01 T00341064  RH  049%=      5-min Rain = 0
KGU1 121142Z 20006KT 03/M06 A3018 RMK A01 T00341063  RH  050%=      5-min Rain = 0
KGU1 121143Z 20006KT 03/M06 A3018 RMK A01 T00331063  RH  050%=      5-min Rain = 0
KGU1 121144Z 20010KT 03/M06 A3018 RMK A01 T00331063  RH  050%=      5-min Rain = 0
KGU1 121145Z 20013G18KT 03/M06 A3018 RMK A01 T00331062  RH  050%=      5-min Rain = 0
KGU1 121146Z 19011KT 03/M06 A3017 RMK A01 T00331061  RH  051%=      5-min Rain = 0
KGU1 121147Z 21009KT 03/M06 A3018 RMK A01 T00331061  RH  051%=      5-min Rain = 0
KGU1 121148Z 21009KT 03/M06 A3018 RMK A01 T00321063  RH  050%=      5-min Rain = 0
KGU1 121149Z 22010KT 03/M06 A3017 RMK A01 T00331064  RH  049%=      5-min Rain = 0
KGU1 121150Z 20009KT 03/M06 A3017 RMK A01 T00331061  RH  051%=      5-min Rain = 0
KGU1 121151Z 19011KT 03/M06 A3017 RMK A01 T00321060  RH  051%=      5-min Rain = 0
KGU1 121152Z 18012KT 03/M06 A3017 RMK A01 T00321060  RH  052%=      5-min Rain = 0
KGU1 121153Z 19013KT 03/M06 A3017 RMK A01 T00311058  RH  053%=      5-min Rain = 0
KGU1 121154Z 18013KT 03/M06 A3017 RMK A01 T00291058  RH  053%=      5-min Rain = 0
KGU1 121155Z 20010KT 03/M06 A3017 RMK A01 T00291059  RH  053%=      5-min Rain = 0
KGU1 121156Z 21007KT 03/M06 A3018 RMK A01 T00291059  RH  053%=      5-min Rain = 0
KGU1 121157Z 19008KT 03/M06 A3017 RMK A01 T00281059  RH  053%=      5-min Rain = 0
KGU1 121158Z 19012KT 03/M06 A3017 RMK A01 T00281058  RH  054%=      5-min Rain = 0
KGU1 121159Z 18013KT 03/M06 A3017 RMK A01 T00271058  RH  054%=      5-min Rain = 0
KGU1 121200Z 19013KT 03/M06 A3017 RMK A01 T00271058  RH  054%=      5-min Rain = 0
KGU1 121201Z 18008KT 03/M06 A3017 RMK A01 T00271058  RH  054%=      5-min Rain = 0
KGU1 121202Z 19009KT 03/M06 A3018 RMK A01 T00271060  RH  053%=      5-min Rain = 0
KGU1 121203Z 18010KT 03/M06 A3018 RMK A01 T00271058  RH  054%=      5-min Rain = 0
KGU1 121204Z 19010KT 03/M06 A3018 RMK A01 T00261057  RH  055%=      5-min Rain = 0
KGU1 121205Z 17015KT 03/M06 A3017 RMK A01 T00261057  RH  055%=      5-min Rain = 0
KGU1 121206Z 17013KT 03/M06 A3017 RMK A01 T00261060  RH  053%=      5-min Rain = 0
KGU1 121207Z 18011KT 03/M06 A3017 RMK A01 T00271057  RH  055%=      5-min Rain = 0
KGU1 121208Z 20007KT 03/M06 A3018 RMK A01 T00261058  RH  054%=      5-min Rain = 0
KGU1 121209Z 19009G15KT 03/M06 A3018 RMK A01 T00251058  RH  055%=      5-min Rain = 0
KGU1 121210Z 18010KT 02/M06 A3018 RMK A01 T00241055  RH  057%=      5-min Rain = 0
KGU1 121211Z 19011G17KT 02/M05 A3017 RMK A01 T00231054  RH  057%=      5-min Rain = 0
KGU1 121212Z 19013KT 02/M06 A3017 RMK A01 T00231057  RH  056%=      5-min Rain = 0
KGU1 121213Z 20012KT 02/M06 A3018 RMK A01 T00241057  RH  056%=      5-min Rain = 0
KGU1 121214Z 18013KT 02/M06 A3018 RMK A01 T00241056  RH  056%=      5-min Rain = 0
KGU1 121215Z 18013KT 02/M06 A3018 RMK A01 T00231055  RH  057%=      5-min Rain = 0
KGU1 121216Z 19010KT 02/M05 A3018 RMK A01 T00221053  RH  058%=      5-min Rain = 0
KGU1 121217Z 19011KT 02/M05 A3018 RMK A01 T00211054  RH  058%=      5-min Rain = 0
KGU1 121218Z 19012KT 02/M06 A3018 RMK A01 T00201055  RH  058%=      5-min Rain = 0
KGU1 121219Z 19011KT 02/M06 A3018 RMK A01 T00211056  RH  057%=      5-min Rain = 0
KGU1 121220Z 21007KT 02/M06 A3018 RMK A01 T00211055  RH  058%=      5-min Rain = 0
KGU1 121221Z 19010KT 02/M06 A3018 RMK A01 T00201057  RH  057%=      5-min Rain = 0
KGU1 121222Z 20011KT 02/M06 A3017 RMK A01 T00201058  RH  057%=      5-min Rain = 0
KGU1 121223Z 21011KT 02/M06 A3018 RMK A01 T00211057  RH  057%=      5-min Rain = 0
KGU1 121224Z 21011KT 02/M06 A3018 RMK A01 T00211058  RH  057%=      5-min Rain = 0
KGU1 121225Z 20012KT 02/M06 A3018 RMK A01 T00211057  RH  057%=      5-min Rain = 0
KGU1 121226Z 21010KT 02/M06 A3018 RMK A01 T00221057  RH  057%=      5-min Rain = 0
KGU1 121227Z 20011KT 02/M06 A3018 RMK A01 T00221056  RH  057%=      5-min Rain = 0
KGU1 121228Z 19015KT 02/M06 A3018 RMK A01 T00211055  RH  058%=      5-min Rain = 0
KGU1 121229Z 19012KT 02/M05 A3018 RMK A01 T00201054  RH  059%=      5-min Rain = 0
KGU1 121230Z 19013KT 02/M05 A3018 RMK A01 T00201054  RH  059%=      5-min Rain = 0
KGU1 121231Z 19009G15KT 02/M05 A3018 RMK A01 T00191054  RH  059%=      5-min Rain = 0
KGU1 121232Z 23009KT 02/M06 A3018 RMK A01 T00191055  RH  059%=      5-min Rain = 0
KGU1 121233Z 21011KT 02/M05 A3018 RMK A01 T00181054  RH  059%=      5-min Rain = 0
KGU1 121234Z 18012KT 02/M05 A3018 RMK A01 T00181054  RH  059%=      5-min Rain = 0
KGU1 121235Z 19011KT 02/M05 A3017 RMK A01 T00181053  RH  060%=      5-min Rain = 0
KGU1 121236Z 21009KT 02/M05 A3018 RMK A01 T00171053  RH  060%=      5-min Rain = 0
KGU1 121237Z 19012KT 02/M05 A3018 RMK A01 T00171053  RH  060%=      5-min Rain = 0
KGU1 121238Z 19014KT 02/M05 A3017 RMK A01 T00171054  RH  060%=      5-min Rain = 0
KGU1 121239Z 20013KT 02/M06 A3018 RMK A01 T00171055  RH  060%=      5-min Rain = 0
KGU1 121240Z 18010KT 02/M06 A3018 RMK A01 T00181056  RH  059%=      5-min Rain = 0
KGU1 121241Z 19007KT 02/M06 A3018 RMK A01 T00191055  RH  059%=      5-min Rain = 0
KGU1 121242Z 20009KT 02/M06 A3018 RMK A01 T00181056  RH  059%=      5-min Rain = 0
KGU1 121243Z 21007KT 02/M06 A3018 RMK A01 T00181056  RH  059%=      5-min Rain = 0
KGU1 121244Z 22007KT 02/M05 A3018 RMK A01 T00181054  RH  060%=      5-min Rain = 0
KGU1 121245Z 21004KT 02/M05 A3018 RMK A01 T00171053  RH  060%=      5-min Rain = 0
KGU1 121246Z 20009KT 02/M05 A3018 RMK A01 T00161053  RH  061%=      5-min Rain = 0
KGU1 121247Z 20005KT 02/M05 A3018 RMK A01 T00151053  RH  061%=      5-min Rain = 0
KGU1 121248Z 19009KT 02/M05 A3018 RMK A01 T00151054  RH  061%=      5-min Rain = 0
KGU1 121249Z 19012KT 02/M05 A3018 RMK A01 T00151054  RH  061%=      5-min Rain = 0
KGU1 121250Z 19011KT 01/M05 A3018 RMK A01 T00141052  RH  062%=      5-min Rain = 0
KGU1 121251Z 19012KT 01/M05 A3018 RMK A01 T00131051  RH  063%=      5-min Rain = 0
KGU1 121252Z 18011KT 01/M05 A3019 RMK A01 T00121051  RH  064%=      5-min Rain = 0
KGU1 121253Z 18011KT 01/M05 A3018 RMK A01 T00111052  RH  064%=      5-min Rain = 0
KGU1 121254Z 18010KT 01/M05 A3019 RMK A01 T00101051  RH  064%=      5-min Rain = 0
KGU1 121255Z 19009KT 01/M05 A3019 RMK A01 T00101051  RH  064%=      5-min Rain = 0
KGU1 121256Z 19010KT 01/M05 A3019 RMK A01 T00101052  RH  064%=      5-min Rain = 0
KGU1 121257Z 20011KT 01/M05 A3019 RMK A01 T00111053  RH  063%=      5-min Rain = 0
KGU1 121258Z 21010KT 01/M05 A3019 RMK A01 T00121053  RH  063%=      5-min Rain = 0
KGU1 121259Z 21009KT 01/M05 A3019 RMK A01 T00121054  RH  062%=      5-min Rain = 0
KGU1 121300Z 19010KT 01/M05 A3019 RMK A01 T00121053  RH  062%=      5-min Rain = 0
KGU1 121301Z 19010KT 01/M05 A3019 RMK A01 T00111053  RH  063%=      5-min Rain = 0
KGU1 121302Z 21010KT 01/M05 A3019 RMK A01 T00121053  RH  063%=      5-min Rain = 0
KGU1 121303Z 20011G16KT 01/M05 A3019 RMK A01 T00111051  RH  064%=      5-min Rain = 0
KGU1 121304Z 20013KT 01/M05 A3019 RMK A01 T00101052  RH  064%=      5-min Rain = 0
KGU1 121305Z 19014KT 01/M05 A3018 RMK A01 T00101052  RH  064%=      5-min Rain = 0
KGU1 121306Z 20014KT 01/M05 A3018 RMK A01 T00101050  RH  065%=      5-min Rain = 0
KGU1 121307Z 20013KT 01/M05 A3018 RMK A01 T00081050  RH  066%=      5-min Rain = 0
KGU1 121308Z 20011KT 01/M05 A3018 RMK A01 T00081053  RH  065%=      5-min Rain = 0
KGU1 121309Z 20013KT 01/M05 A3018 RMK A01 T00081051  RH  066%=      5-min Rain = 0
KGU1 121310Z 20013KT 01/M05 A3018 RMK A01 T00061051  RH  066%=      5-min Rain = 0
KGU1 121311Z 20013KT 01/M05 A3018 RMK A01 T00061050  RH  067%=      5-min Rain = 0
KGU1 121312Z 20015KT 01/M05 A3018 RMK A01 T00051050  RH  068%=      5-min Rain = 0
KGU1 121313Z 20013KT 00/M05 A3018 RMK A01 T00041049  RH  068%=      5-min Rain = 0
KGU1 121314Z 20013KT 00/M05 A3018 RMK A01 T00021050  RH  069%=      5-min Rain = 0
KGU1 121315Z 21013KT 00/M05 A3018 RMK A01 T00021051  RH  068%=      5-min Rain = 0
KGU1 121316Z 20014KT 00/M05 A3018 RMK A01 T00021051  RH  068%=      5-min Rain = 0
KGU1 121317Z 20015KT 00/M05 A3018 RMK A01 T00041054  RH  066%=      5-min Rain = 0
KGU1 121318Z 19012KT 01/M05 A3018 RMK A01 T00061054  RH  065%=      5-min Rain = 0
KGU1 121319Z 20013KT 01/M05 A3018 RMK A01 T00061051  RH  066%=      5-min Rain = 0
KGU1 121320Z 20014KT 01/M05 A3017 RMK A01 T00051050  RH  067%=      5-min Rain = 0
KGU1 121321Z 20011KT 00/M05 A3018 RMK A01 T00041051  RH  067%=      5-min Rain = 0
KGU1 121322Z 19012KT 00/M05 A3018 RMK A01 T00031050  RH  068%=      5-min Rain = 0
KGU1 121323Z 19012KT 00/M05 A3018 RMK A01 T00021050  RH  069%=      5-min Rain = 0
KGU1 121324Z 19014KT 00/M05 A3018 RMK A01 T00011051  RH  069%=      5-min Rain = 0
KGU1 121325Z 20012KT 00/M05 A3018 RMK A01 T00021051  RH  068%=      5-min Rain = 0
KGU1 121326Z 20014KT 00/M05 A3018 RMK A01 T00021051  RH  068%=      5-min Rain = 0
KGU1 121327Z 20013KT 00/M05 A3018 RMK A01 T00021051  RH  068%=      5-min Rain = 0
KGU1 121328Z 19011KT 00/M05 A3018 RMK A01 T00031051  RH  068%=      5-min Rain = 0
KGU1 121329Z 19010KT 00/M05 A3018 RMK A01 T00041052  RH  067%=      5-min Rain = 0
KGU1 121330Z 20010KT 00/M05 A3019 RMK A01 T00041051  RH  067%=      5-min Rain = 0
KGU1 121331Z 20010KT 00/M05 A3019 RMK A01 T00031050  RH  068%=      5-min Rain = 0
KGU1 121332Z 20010KT 00/M05 A3019 RMK A01 T00031051  RH  068%=      5-min Rain = 0
KGU1 121333Z 19011KT 00/M05 A3019 RMK A01 T00031051  RH  068%=      5-min Rain = 0
KGU1 121334Z 19012KT 00/M05 A302 RMK A01 T00031050  RH  068%=      5-min Rain = 0
KGU1 121335Z 19011KT 00/M05 A302 RMK A01 T00041050  RH  068%=      5-min Rain = 0
KGU1 121336Z 20011KT 00/M05 A302 RMK A01 T00031050  RH  068%=      5-min Rain = 0
KGU1 121337Z 19014KT 00/M05 A3019 RMK A01 T00031049  RH  069%=      5-min Rain = 0
KGU1 121338Z 20012KT 00/M05 A302 RMK A01 T00021049  RH  069%=      5-min Rain = 0
KGU1 121339Z 21013KT 00/M05 A302 RMK A01 T00011049  RH  070%=      5-min Rain = 0
KGU1 121340Z 20012KT 00/M05 A302 RMK A01 T00011050  RH  069%=      5-min Rain = 0
KGU1 121341Z 20012KT 00/M05 A302 RMK A01 T00021052  RH  068%=      5-min Rain = 0
KGU1 121342Z 20014KT 00/M05 A3019 RMK A01 T00021050  RH  069%=      5-min Rain = 0
KGU1 121343Z 20012KT 00/M05 A302 RMK A01 T00021050  RH  069%=      5-min Rain = 0
KGU1 121344Z 20015KT 00/M05 A3019 RMK A01 T00011050  RH  069%=      5-min Rain = 0
KGU1 121345Z 20014KT 00/M05 A3019 RMK A01 T00011050  RH  069%=      5-min Rain = 0
KGU1 121346Z 20009KT 00/05 A3019 RMK A01 T00000-51  RH  069%=      5-min Rain = 0
KGU1 121347Z 22006G11KT 00/05 A302 RMK A01 T00-00-50  RH  070%=      5-min Rain = 0
KGU1 121348Z 21008G13KT M00/M05 A302 RMK A01 T10011051  RH  070%=      5-min Rain = 0
KGU1 121349Z 22009KT M00/M05 A302 RMK A01 T10011051  RH  070%=      5-min Rain = 0
KGU1 121350Z 21010G15KT M00/M05 A302 RMK A01 T10011050  RH  070%=      5-min Rain = 0
KGU1 121351Z 20014KT M00/M05 A302 RMK A01 T10021050  RH  071%=      5-min Rain = 0
KGU1 121352Z 19010G16KT M00/M05 A3019 RMK A01 T10021050  RH  071%=      5-min Rain = 0
KGU1 121353Z 21012KT M00/M05 A302 RMK A01 T10021051  RH  070%=      5-min Rain = 0
KGU1 121354Z 19019KT 00/05 A3018 RMK A01 T00-00-52  RH  069%=      5-min Rain = 0
KGU1 121355Z 19016KT 00/M05 A3019 RMK A01 T00031052  RH  067%=      5-min Rain = 0
KGU1 121356Z 19013KT 00/M05 A302 RMK A01 T00021051  RH  068%=      5-min Rain = 0
KGU1 121357Z 22010G15KT 00/M05 A302 RMK A01 T00031054  RH  066%=      5-min Rain = 0
KGU1 121358Z 19014KT 01/M05 A302 RMK A01 T00051054  RH  065%=      5-min Rain = 0
KGU1 121359Z 20014KT 01/M05 A302 RMK A01 T00051052  RH  066%=      5-min Rain = 0
KGU1 121400Z 19014KT 01/M05 A302 RMK A01 T00051053  RH  066%=      5-min Rain = 0
KGU1 121401Z 19013KT 01/M05 A302 RMK A01 T00051052  RH  067%=      5-min Rain = 0
KGU1 121402Z 19017KT 00/M05 A302 RMK A01 T00041051  RH  068%=      5-min Rain = 0
KGU1 121403Z 19013G18KT 00/M05 A302 RMK A01 T00031050  RH  069%=      5-min Rain = 0
KGU1 121404Z 19014KT 00/M05 A302 RMK A01 T00011050  RH  069%=      5-min Rain = 0
KGU1 121405Z 20009KT 00/05 A302 RMK A01 T00000-50  RH  070%=      5-min Rain = 0
KGU1 121406Z 20013KT 00/05 A302 RMK A01 T00-00-50  RH  070%=      5-min Rain = 0
KGU1 121407Z 20014KT M00/M05 A3021 RMK A01 T10011050  RH  070%=      5-min Rain = 0
KGU1 121408Z 21012KT 00/05 A3021 RMK A01 T00-00-50  RH  070%=      5-min Rain = 0
KGU1 121409Z 20011KT 00/05 A3021 RMK A01 T00-00-50  RH  070%=      5-min Rain = 0
KGU1 121410Z 20013KT 00/05 A302 RMK A01 T00000-51  RH  069%=      5-min Rain = 0
KGU1 121411Z 19015KT 00/M05 A302 RMK A01 T00021052  RH  068%=      5-min Rain = 0
KGU1 121412Z 19016KT 00/M05 A302 RMK A01 T00041053  RH  067%=      5-min Rain = 0
KGU1 121413Z 20014KT 00/M05 A3021 RMK A01 T00041051  RH  067%=      5-min Rain = 0
KGU1 121414Z 20014KT 00/M05 A3021 RMK A01 T00041051  RH  067%=      5-min Rain = 0
KGU1 121415Z 20011KT 00/M05 A3021 RMK A01 T00031051  RH  068%=      5-min Rain = 0
KGU1 121416Z 20010KT 00/M05 A3021 RMK A01 T00031051  RH  068%=      5-min Rain = 0
KGU1 121417Z 20011KT 00/M05 A3021 RMK A01 T00031054  RH  066%=      5-min Rain = 0
KGU1 121418Z 20012KT 01/M05 A3021 RMK A01 T00061054  RH  065%=      5-min Rain = 0
KGU1 121419Z 21012KT 01/M05 A3021 RMK A01 T00061053  RH  065%=      5-min Rain = 0
KGU1 121420Z 20012KT 01/M06 A3021 RMK A01 T00081055  RH  064%=      5-min Rain = 0
KGU1 121421Z 20012KT 01/M06 A3021 RMK A01 T00101055  RH  062%=      5-min Rain = 0
KGU1 121422Z 20015KT 01/M06 A3021 RMK A01 T00121057  RH  060%=      5-min Rain = 0
KGU1 121423Z 19012G18KT 01/M05 A3021 RMK A01 T00131054  RH  062%=      5-min Rain = 0
KGU1 121424Z 21014KT 01/M05 A3021 RMK A01 T00121053  RH  062%=      5-min Rain = 0
KGU1 121425Z 20014KT 01/M05 A3021 RMK A01 T00121054  RH  062%=      5-min Rain = 0
KGU1 121426Z 21011KT 01/M05 A3021 RMK A01 T00121054  RH  062%=      5-min Rain = 0
KGU1 121427Z 21011KT 01/M06 A3021 RMK A01 T00131056  RH  061%=      5-min Rain = 0
KGU1 121428Z 21013KT 01/M06 A3021 RMK A01 T00141055  RH  061%=      5-min Rain = 0
KGU1 121429Z 21013KT 01/M05 A3021 RMK A01 T00131053  RH  062%=      5-min Rain = 0
KGU1 121430Z 21011KT 01/M05 A3021 RMK A01 T00121053  RH  063%=      5-min Rain = 0
KGU1 121431Z 22010KT 01/M05 A3022 RMK A01 T00131054  RH  062%=      5-min Rain = 0
KGU1 121432Z 20010KT 01/M05 A3021 RMK A01 T00141054  RH  061%=      5-min Rain = 0
KGU1 121433Z 20009KT 02/M06 A3021 RMK A01 T00151057  RH  060%=      5-min Rain = 0
KGU1 121434Z 19013KT 02/M06 A3021 RMK A01 T00181057  RH  058%=      5-min Rain = 0
KGU1 121435Z 20013KT 02/M06 A3021 RMK A01 T00191056  RH  058%=      5-min Rain = 0
KGU1 121436Z 20011KT 02/M06 A3021 RMK A01 T00191055  RH  058%=      5-min Rain = 0
KGU1 121437Z 19012KT 02/M06 A3021 RMK A01 T00201057  RH  057%=      5-min Rain = 0
KGU1 121438Z 20013KT 02/M06 A3021 RMK A01 T00201056  RH  058%=      5-min Rain = 0
KGU1 121439Z 20011KT 02/M06 A3021 RMK A01 T00201056  RH  058%=      5-min Rain = 0
KGU1 121440Z 20011G19KT 02/M06 A3021 RMK A01 T00211055  RH  058%=      5-min Rain = 0
KGU1 121441Z 20014KT 02/M05 A3021 RMK A01 T00201054  RH  059%=      5-min Rain = 0
KGU1 121442Z 21013KT 02/M06 A3021 RMK A01 T00191055  RH  059%=      5-min Rain = 0
KGU1 121443Z 20010KT 02/M06 A3021 RMK A01 T00191058  RH  057%=      5-min Rain = 0
KGU1 121444Z 21011G16KT 02/M06 A3021 RMK A01 T00211056  RH  057%=      5-min Rain = 0
KGU1 121445Z 22012KT 02/M05 A3021 RMK A01 T00211054  RH  058%=      5-min Rain = 0
KGU1 121446Z 21012KT 02/M05 A3021 RMK A01 T00211053  RH  059%=      5-min Rain = 0
KGU1 121447Z 20012KT 02/M05 A3021 RMK A01 T00201053  RH  059%=      5-min Rain = 0
KGU1 121448Z 20012KT 02/M05 A3021 RMK A01 T00201054  RH  059%=      5-min Rain = 0
KGU1 121449Z 20012KT 02/M05 A3021 RMK A01 T00201054  RH  058%=      5-min Rain = 0
KGU1 121450Z 20014KT 02/M05 A3021 RMK A01 T00201054  RH  058%=      5-min Rain = 0
KGU1 121451Z 22011KT 02/M05 A3021 RMK A01 T00201054  RH  058%=      5-min Rain = 0
KGU1 121452Z 20011G16KT 02/M05 A3021 RMK A01 T00211054  RH  058%=      5-min Rain = 0
KGU1 121453Z 20014KT 02/M06 A3021 RMK A01 T00211055  RH  058%=      5-min Rain = 0
KGU1 121454Z 20010KT 02/M06 A3022 RMK A01 T00221056  RH  057%=      5-min Rain = 0
KGU1 121455Z 21013KT 02/M06 A3022 RMK A01 T00241055  RH  057%=      5-min Rain = 0
KGU1 121456Z 21013KT 02/M05 A3022 RMK A01 T00241053  RH  058%=      5-min Rain = 0
KGU1 121457Z 20011KT 02/M05 A3021 RMK A01 T00241054  RH  057%=      5-min Rain = 0
KGU1 121458Z 20010KT 02/M05 A3021 RMK A01 T00241053  RH  058%=      5-min Rain = 0
KGU1 121459Z 21012KT 02/M05 A3022 RMK A01 T00241051  RH  058%=      5-min Rain = 0
KGU1 121500Z 20015KT 02/M05 A3021 RMK A01 T00231053  RH  058%=      5-min Rain = 0
KGU1 121501Z 20014KT 02/M05 A3022 RMK A01 T00231052  RH  059%=      5-min Rain = 0
KGU1 121502Z 20014KT 02/M05 A3022 RMK A01 T00221051  RH  059%=      5-min Rain = 0
KGU1 121503Z 20015KT 02/M05 A3022 RMK A01 T00211050  RH  060%=      5-min Rain = 0
KGU1 121504Z 20012KT 02/M05 A3022 RMK A01 T00201050  RH  060%=      5-min Rain = 0
KGU1 121505Z 20013KT 02/M06 A3022 RMK A01 T00221056  RH  057%=      5-min Rain = 0
KGU1 121506Z 19011KT 02/M05 A3022 RMK A01 T00241053  RH  058%=      5-min Rain = 0
KGU1 121507Z 20010G16KT 02/M05 A3022 RMK A01 T00241051  RH  059%=      5-min Rain = 0
KGU1 121508Z 20012KT 02/M05 A3022 RMK A01 T00231052  RH  058%=      5-min Rain = 0
KGU1 121509Z 21011KT 02/M05 A3022 RMK A01 T00241054  RH  057%=      5-min Rain = 0
KGU1 121510Z 21010KT 03/M06 A3022 RMK A01 T00261055  RH  056%=      5-min Rain = 0
KGU1 121511Z 20009KT 03/M05 A3022 RMK A01 T00271052  RH  057%=      5-min Rain = 0
KGU1 121512Z 20011KT 03/M05 A3022 RMK A01 T00281053  RH  056%=      5-min Rain = 0
KGU1 121513Z 20015KT 03/M05 A3022 RMK A01 T00271050  RH  058%=      5-min Rain = 0
KGU1 121514Z 19013KT 03/M05 A3022 RMK A01 T00251054  RH  057%=      5-min Rain = 0
KGU1 121515Z 20015G20KT 03/M06 A3021 RMK A01 T00261055  RH  056%=      5-min Rain = 0
KGU1 121516Z 21015KT 03/M05 A3022 RMK A01 T00261051  RH  057%=      5-min Rain = 0
KGU1 121517Z 20013KT 03/M05 A3022 RMK A01 T00251051  RH  058%=      5-min Rain = 0
KGU1 121518Z 19010G15KT 02/M05 A3022 RMK A01 T00241051  RH  058%=      5-min Rain = 0
KGU1 121519Z 17009G14KT 03/M05 A3022 RMK A01 T00251053  RH  057%=      5-min Rain = 0
KGU1 121520Z 21010KT 03/M05 A3022 RMK A01 T00251051  RH  058%=      5-min Rain = 0
KGU1 121521Z 20011G16KT 03/M05 A3022 RMK A01 T00251049  RH  059%=      5-min Rain = 0
KGU1 121522Z 20015KT 03/M05 A3022 RMK A01 T00251051  RH  058%=      5-min Rain = 0
KGU1 121523Z 21011KT 02/M05 A3022 RMK A01 T00231049  RH  059%=      5-min Rain = 0
KGU1 121524Z 21009KT 02/M05 A3022 RMK A01 T00231049  RH  059%=      5-min Rain = 0
KGU1 121525Z 21012KT 03/M05 A3022 RMK A01 T00251051  RH  058%=      5-min Rain = 0
KGU1 121526Z 20015KT 03/M05 A3022 RMK A01 T00261050  RH  058%=      5-min Rain = 0
KGU1 121527Z 20013KT 03/M05 A3022 RMK A01 T00261051  RH  058%=      5-min Rain = 0
KGU1 121528Z 21009KT 03/M05 A3022 RMK A01 T00271049  RH  058%=      5-min Rain = 0
KGU1 121529Z 21012KT 03/M05 A3022 RMK A01 T00281050  RH  057%=      5-min Rain = 0
KGU1 121530Z 21012G17KT 03/M05 A3022 RMK A01 T00281051  RH  057%=      5-min Rain = 0
KGU1 121531Z 21013KT 03/M05 A3023 RMK A01 T00281051  RH  057%=      5-min Rain = 0
KGU1 121532Z 20014KT 03/M05 A3023 RMK A01 T00291051  RH  056%=      5-min Rain = 0
KGU1 121533Z 19012KT 03/M05 A3023 RMK A01 T00281050  RH  057%=      5-min Rain = 0
KGU1 121534Z 21012KT 03/M05 A3023 RMK A01 T00291050  RH  057%=      5-min Rain = 0
KGU1 121535Z 21013KT 03/M05 A3023 RMK A01 T00291050  RH  057%=      5-min Rain = 0
KGU1 121536Z 20010G15KT 03/M05 A3023 RMK A01 T00291048  RH  057%=      5-min Rain = 0
KGU1 121537Z 20011KT 03/M05 A3023 RMK A01 T00301048  RH  057%=      5-min Rain = 0
KGU1 121538Z 21013KT 03/M05 A3023 RMK A01 T00311049  RH  057%=      5-min Rain = 0
KGU1 121539Z 20014KT 03/M05 A3023 RMK A01 T00301049  RH  057%=      5-min Rain = 0
KGU1 121540Z 20013KT 03/M05 A3023 RMK A01 T00291050  RH  057%=      5-min Rain = 0
KGU1 121541Z 20012KT 03/M05 A3023 RMK A01 T00301050  RH  056%=      5-min Rain = 0
KGU1 121542Z 20012KT 03/M05 A3023 RMK A01 T00311051  RH  056%=      5-min Rain = 0
KGU1 121543Z 20011KT 03/M05 A3023 RMK A01 T00311050  RH  056%=      5-min Rain = 0
KGU1 121544Z 20013KT 03/M05 A3023 RMK A01 T00321050  RH  056%=      5-min Rain = 0
KGU1 121545Z 20011KT 03/M05 A3023 RMK A01 T00321049  RH  056%=      5-min Rain = 0
KGU1 121546Z 21013KT 03/M05 A3023 RMK A01 T00321048  RH  056%=      5-min Rain = 0
KGU1 121547Z 21013KT 03/M05 A3023 RMK A01 T00311048  RH  057%=      5-min Rain = 0
KGU1 121548Z 21012KT 03/M05 A3023 RMK A01 T00321048  RH  057%=      5-min Rain = 0
KGU1 121549Z 20013KT 03/M05 A3023 RMK A01 T00321049  RH  056%=      5-min Rain = 0
KGU1 121550Z 20013KT 03/M05 A3023 RMK A01 T00321048  RH  056%=      5-min Rain = 0
KGU1 121551Z 21015KT 03/M05 A3023 RMK A01 T00331049  RH  056%=      5-min Rain = 0
KGU1 121552Z 21017KT 03/M05 A3023 RMK A01 T00331051  RH  055%=      5-min Rain = 0
KGU1 121553Z 21014KT 03/M05 A3023 RMK A01 T00321051  RH  055%=      5-min Rain = 0
KGU1 121554Z 22013KT 03/M05 A3023 RMK A01 T00341052  RH  054%=      5-min Rain = 0
KGU1 121555Z 21016KT 04/M05 A3023 RMK A01 T00351052  RH  053%=      5-min Rain = 0
KGU1 121556Z 21012KT 04/M05 A3023 RMK A01 T00361052  RH  053%=      5-min Rain = 0
KGU1 121557Z 21012KT 04/M05 A3023 RMK A01 T00381052  RH  053%=      5-min Rain = 0
KGU1 121558Z 21010KT 04/M05 A3023 RMK A01 T00391050  RH  053%=      5-min Rain = 0
KGU1 121559Z 21014KT 04/M05 A3023 RMK A01 T00391049  RH  053%=      5-min Rain = 0
KGU1 121600Z 21013KT 04/M05 A3022 RMK A01 T00381050  RH  053%=      5-min Rain = 0
KGU1 121601Z 22012KT 04/M05 A3023 RMK A01 T00391049  RH  053%=      5-min Rain = 0
KGU1 121602Z 22014KT 04/M05 A3023 RMK A01 T00381051  RH  053%=      5-min Rain = 0
KGU1 121603Z 22013KT 04/M05 A3023 RMK A01 T00391052  RH  052%=      5-min Rain = 0
KGU1 121604Z 21012G17KT 04/M05 A3023 RMK A01 T00391050  RH  053%=      5-min Rain = 0
KGU1 121605Z 21015KT 04/M05 A3023 RMK A01 T00391048  RH  053%=      5-min Rain = 0
KGU1 121606Z 21014KT 04/M05 A3023 RMK A01 T00391048  RH  054%=      5-min Rain = 0
KGU1 121607Z 21013KT 04/M05 A3023 RMK A01 T00391050  RH  053%=      5-min Rain = 0
KGU1 121608Z 21011KT 04/M05 A3023 RMK A01 T00391049  RH  053%=      5-min Rain = 0
KGU1 121609Z 21014KT 04/M05 A3023 RMK A01 T00391049  RH  053%=      5-min Rain = 0
KGU1 121610Z 22010KT 04/M05 A3023 RMK A01 T00391049  RH  053%=      5-min Rain = 0
KGU1 121611Z 21011KT 04/M05 A3023 RMK A01 T00391049  RH  053%=      5-min Rain = 0
KGU1 121612Z 21013KT 04/M05 A3023 RMK A01 T00391051  RH  052%=      5-min Rain = 0
KGU1 121613Z 21015KT 04/M05 A3023 RMK A01 T00411052  RH  051%=      5-min Rain = 0
KGU1 121614Z 21014KT 04/M05 A3023 RMK A01 T00411052  RH  051%=      5-min Rain = 0
KGU1 121615Z 21012KT 04/M05 A3023 RMK A01 T00421051  RH  051%=      5-min Rain = 0
KGU1 121616Z 20014KT 04/M05 A3023 RMK A01 T00411052  RH  051%=      5-min Rain = 0
KGU1 121617Z 20015KT 04/M05 A3023 RMK A01 T00401051  RH  052%=      5-min Rain = 0
KGU1 121618Z 21013KT 04/M05 A3023 RMK A01 T00411052  RH  052%=      5-min Rain = 0
KGU1 121619Z 21011KT 04/M05 A3023 RMK A01 T00421051  RH  052%=      5-min Rain = 0
KGU1 121620Z 20014KT 04/M05 A3023 RMK A01 T00431051  RH  051%=      5-min Rain = 0
KGU1 121621Z 22012KT 04/M05 A3023 RMK A01 T00441052  RH  050%=      5-min Rain = 0
KGU1 121622Z 22012G17KT 04/M05 A3023 RMK A01 T00441051  RH  051%=      5-min Rain = 0
KGU1 121623Z 21016KT 05/M05 A3023 RMK A01 T00451053  RH  050%=      5-min Rain = 0
KGU1 121624Z 20016G21KT 05/M05 A3023 RMK A01 T00461052  RH  050%=      5-min Rain = 0
KGU1 121625Z 20010G15KT 05/M05 A3023 RMK A01 T00461048  RH  051%=      5-min Rain = 0
KGU1 121626Z 21013KT 05/M05 A3023 RMK A01 T00461049  RH  051%=      5-min Rain = 0
KGU1 121627Z 21013KT 05/M05 A3023 RMK A01 T00451048  RH  051%=      5-min Rain = 0
KGU1 121628Z 21013KT 05/M05 A3023 RMK A01 T00451052  RH  050%=      5-min Rain = 0
KGU1 121629Z 21015KT 05/M05 A3023 RMK A01 T00461052  RH  050%=      5-min Rain = 0
KGU1 121630Z 20014KT 05/M05 A3023 RMK A01 T00451051  RH  051%=      5-min Rain = 0
KGU1 121631Z 21013KT 05/M05 A3023 RMK A01 T00451051  RH  050%=      5-min Rain = 0
KGU1 121632Z 21013KT 05/M05 A3023 RMK A01 T00451051  RH  050%=      5-min Rain = 0
KGU1 121633Z 22012KT 05/M05 A3023 RMK A01 T00461050  RH  050%=      5-min Rain = 0
KGU1 121634Z 21014KT 05/M05 A3023 RMK A01 T00461052  RH  050%=      5-min Rain = 0
KGU1 121635Z 21013KT 05/M05 A3023 RMK A01 T00461050  RH  050%=      5-min Rain = 0
KGU1 121636Z 22013KT 05/M05 A3023 RMK A01 T00471049  RH  050%=      5-min Rain = 0
KGU1 121637Z 21014KT 05/M05 A3023 RMK A01 T00471050  RH  050%=      5-min Rain = 0
KGU1 121638Z 21012KT 05/M05 A3023 RMK A01 T00461050  RH  050%=      5-min Rain = 0
KGU1 121639Z 22012KT 05/M05 A3023 RMK A01 T00471048  RH  051%=      5-min Rain = 0
KGU1 121640Z 22012KT 05/M05 A3023 RMK A01 T00481052  RH  049%=      5-min Rain = 0
KGU1 121641Z 21013KT 05/M05 A3023 RMK A01 T00501049  RH  049%=      5-min Rain = 0
KGU1 121642Z 21013KT 05/M05 A3024 RMK A01 T00511051  RH  048%=      5-min Rain = 0
KGU1 121643Z 21012KT 05/M05 A3024 RMK A01 T00501052  RH  048%=      5-min Rain = 0
KGU1 121644Z 21011KT 05/M05 A3024 RMK A01 T00511051  RH  048%=      5-min Rain = 0
KGU1 121645Z 22012KT 05/M05 A3024 RMK A01 T00521049  RH  049%=      5-min Rain = 0
KGU1 121646Z 22010G15KT 05/M05 A3024 RMK A01 T00521049  RH  049%=      5-min Rain = 0
KGU1 121647Z 21013G18KT 05/M05 A3024 RMK A01 T00521050  RH  048%=      5-min Rain = 0
KGU1 121648Z 21011KT 05/M05 A3024 RMK A01 T00531049  RH  048%=      5-min Rain = 0
KGU1 121649Z 21012KT 05/M05 A3024 RMK A01 T00531051  RH  048%=      5-min Rain = 0
KGU1 121650Z 21013KT 05/M05 A3024 RMK A01 T00531050  RH  048%=      5-min Rain = 0
KGU1 121651Z 21013KT 05/M05 A3024 RMK A01 T00531049  RH  048%=      5-min Rain = 0
KGU1 121652Z 21009G14KT 05/M05 A3024 RMK A01 T00541048  RH  048%=      5-min Rain = 0
KGU1 121653Z 21013KT 05/M05 A3024 RMK A01 T00541051  RH  047%=      5-min Rain = 0
KGU1 121654Z 21012G17KT 05/M05 A3024 RMK A01 T00541048  RH  048%=      5-min Rain = 0
KGU1 121655Z 21012KT 05/M05 A3024 RMK A01 T00541050  RH  048%=      5-min Rain = 0
KGU1 121656Z 21012KT 05/M05 A3024 RMK A01 T00541051  RH  047%=      5-min Rain = 0
KGU1 121657Z 21012KT 06/M05 A3024 RMK A01 T00551051  RH  047%=      5-min Rain = 0
KGU1 121658Z 20012KT 06/M05 A3023 RMK A01 T00561050  RH  047%=      5-min Rain = 0
KGU1 121659Z 21012KT 06/M05 A3023 RMK A01 T00571051  RH  046%=      5-min Rain = 0
KGU1 121700Z 20010KT 06/M05 A3023 RMK A01 T00571049  RH  047%=      5-min Rain = 0
KGU1 121701Z 20012G17KT 06/M05 A3023 RMK A01 T00581052  RH  046%=      5-min Rain = 0
KGU1 121702Z 21013KT 06/M05 A3023 RMK A01 T00571052  RH  046%=      5-min Rain = 0
KGU1 121703Z 20011G17KT 06/M05 A3023 RMK A01 T00571051  RH  046%=      5-min Rain = 0
KGU1 121704Z 19015KT 06/M05 A3023 RMK A01 T00561052  RH  046%=      5-min Rain = 0
KGU1 121705Z 20012KT 06/M05 A3024 RMK A01 T00561050  RH  047%=      5-min Rain = 0
KGU1 121706Z 21011KT 06/M05 A3024 RMK A01 T00571051  RH  046%=      5-min Rain = 0
KGU1 121707Z 20007KT 06/M05 A3024 RMK A01 T00561048  RH  048%=      5-min Rain = 0
KGU1 121708Z 21009KT 06/M05 A3024 RMK A01 T00571048  RH  047%=      5-min Rain = 0
KGU1 121709Z 21010KT 06/M05 A3024 RMK A01 T00591050  RH  046%=      5-min Rain = 0
KGU1 121710Z 21010KT 06/M05 A3024 RMK A01 T00591050  RH  046%=      5-min Rain = 0
KGU1 121711Z 21010G15KT 06/M05 A3024 RMK A01 T00591052  RH  045%=      5-min Rain = 0
KGU1 121712Z 20010KT 06/M05 A3024 RMK A01 T00591049  RH  046%=      5-min Rain = 0
KGU1 121713Z 21010KT 06/M05 A3024 RMK A01 T00601048  RH  047%=      5-min Rain = 0
KGU1 121714Z 21012KT 06/M05 A3024 RMK A01 T00591050  RH  046%=      5-min Rain = 0
KGU1 121715Z 21010KT 06/M05 A3024 RMK A01 T00581048  RH  047%=      5-min Rain = 0
KGU1 121716Z 21012KT 06/M05 A3024 RMK A01 T00571050  RH  046%=      5-min Rain = 0
KGU1 121717Z 20007G12KT 06/M05 A3024 RMK A01 T00571050  RH  047%=      5-min Rain = 0
KGU1 121718Z 21011KT 06/M05 A3024 RMK A01 T00591049  RH  046%=      5-min Rain = 0
KGU1 121719Z 21013KT 06/M05 A3023 RMK A01 T00621050  RH  045%=      5-min Rain = 0
KGU1 121720Z 22010KT 06/M06 A3023 RMK A01 T00641056  RH  042%=      5-min Rain = 0
KGU1 121721Z 22011KT 07/M05 A3023 RMK A01 T00661050  RH  044%=      5-min Rain = 0
KGU1 121722Z 21011KT 07/M05 A3023 RMK A01 T00661049  RH  044%=      5-min Rain = 0
KGU1 121723Z 21011KT 07/M05 A3023 RMK A01 T00681050  RH  043%=      5-min Rain = 0
KGU1 121724Z 21012KT 07/M05 A3023 RMK A01 T00691053  RH  042%=      5-min Rain = 0
KGU1 121725Z 21011KT 07/M06 A3023 RMK A01 T00701056  RH  041%=      5-min Rain = 0
KGU1 121726Z 22010KT 07/M05 A3023 RMK A01 T00691050  RH  043%=      5-min Rain = 0
KGU1 121727Z 22011KT 07/M05 A3023 RMK A01 T00671048  RH  044%=      5-min Rain = 0
KGU1 121728Z 21009KT 07/M05 A3023 RMK A01 T00681049  RH  043%=      5-min Rain = 0
KGU1 121729Z 21012KT 07/M05 A3023 RMK A01 T00701054  RH  041%=      5-min Rain = 0
KGU1 121730Z 20011G16KT 07/M05 A3023 RMK A01 T00691047  RH  044%=      5-min Rain = 0
KGU1 121731Z 20012KT 07/M05 A3023 RMK A01 T00681046  RH  044%=      5-min Rain = 0
KGU1 121732Z 20010KT 07/M05 A3022 RMK A01 T00671048  RH  044%=      5-min Rain = 0
KGU1 121733Z 20011G16KT 07/M05 A3022 RMK A01 T00661048  RH  045%=      5-min Rain = 0
KGU1 121734Z 21013KT 07/M05 A3022 RMK A01 T00671047  RH  044%=      5-min Rain = 0
KGU1 121735Z 21009G14KT 07/M05 A3022 RMK A01 T00681047  RH  044%=      5-min Rain = 0
KGU1 121736Z 22007KT 07/M05 A3023 RMK A01 T00681046  RH  045%=      5-min Rain = 0
KGU1 121737Z 21013KT 07/M05 A3022 RMK A01 T00681046  RH  044%=      5-min Rain = 0
KGU1 121738Z 21013KT 07/M05 A3022 RMK A01 T00671047  RH  045%=      5-min Rain = 0
KGU1 121739Z 21013KT 07/M05 A3022 RMK A01 T00651046  RH  045%=      5-min Rain = 0
KGU1 121740Z 20012KT 07/M05 A3022 RMK A01 T00651047  RH  045%=      5-min Rain = 0
KGU1 121741Z 21012KT 07/M05 A3022 RMK A01 T00661048  RH  045%=      5-min Rain = 0
KGU1 121742Z 20012KT 07/M05 A3022 RMK A01 T00661050  RH  044%=      5-min Rain = 0
KGU1 121743Z 20012KT 07/M05 A3022 RMK A01 T00661047  RH  045%=      5-min Rain = 0
KGU1 121744Z 21012KT 07/M04 A3022 RMK A01 T00661044  RH  046%=      5-min Rain = 0
KGU1 121745Z 20014KT 07/M05 A3022 RMK A01 T00661045  RH  045%=      5-min Rain = 0
KGU1 121746Z 20011KT 07/M05 A3022 RMK A01 T00651045  RH  046%=      5-min Rain = 0
KGU1 121747Z 20013KT 07/M05 A3022 RMK A01 T00651047  RH  045%=      5-min Rain = 0
KGU1 121748Z 20011KT 06/M05 A3022 RMK A01 T00641047  RH  045%=      5-min Rain = 0
KGU1 121749Z 21012KT 06/M05 A3022 RMK A01 T00631046  RH  046%=      5-min Rain = 0
KGU1 121750Z 20012KT 07/M05 A3022 RMK A01 T00651046  RH  046%=      5-min Rain = 0
KGU1 121751Z 21012KT 07/M05 A3022 RMK A01 T00651046  RH  045%=      5-min Rain = 0
KGU1 121752Z 20011G19KT 07/M04 A3021 RMK A01 T00661043  RH  046%=      5-min Rain = 0
KGU1 121753Z 20008G17KT 07/M05 A3021 RMK A01 T00681050  RH  043%=      5-min Rain = 0
KGU1 121754Z 20011KT 07/M05 A3021 RMK A01 T00691048  RH  044%=      5-min Rain = 0
KGU1 121755Z 21014KT 07/M05 A3021 RMK A01 T00701049  RH  043%=      5-min Rain = 0
KGU1 121756Z 19013KT 07/M05 A3021 RMK A01 T00691047  RH  044%=      5-min Rain = 0
KGU1 121757Z 20013KT 07/M05 A3021 RMK A01 T00691047  RH  044%=      5-min Rain = 0
KGU1 121758Z 19014KT 07/M05 A3021 RMK A01 T00701049  RH  043%=      5-min Rain = 0
KGU1 121759Z 19015KT 07/M05 A302 RMK A01 T00711049  RH  043%=      5-min Rain = 0
KGU1 121800Z 20014KT 07/M05 A3021 RMK A01 T00701050  RH  043%=      5-min Rain = 0
KGU1 121801Z 19013G18KT 07/M05 A302 RMK A01 T00711051  RH  042%=      5-min Rain = 0
KGU1 121802Z 19014KT 07/M05 A302 RMK A01 T00711051  RH  042%=      5-min Rain = 0
KGU1 121803Z 20014KT 07/M05 A302 RMK A01 T00711052  RH  042%=      5-min Rain = 0
KGU1 121804Z 20013KT 07/M05 A302 RMK A01 T00741053  RH  041%=      5-min Rain = 0
KGU1 121805Z 20013KT 08/M05 A302 RMK A01 T00761053  RH  040%=      5-min Rain = 0
KGU1 121806Z 19014KT 08/M05 A302 RMK A01 T00751052  RH  041%=      5-min Rain = 0
KGU1 121807Z 20016KT 08/M05 A302 RMK A01 T00751053  RH  040%=      5-min Rain = 0
KGU1 121808Z 19015KT 07/M05 A302 RMK A01 T00731050  RH  042%=      5-min Rain = 0
KGU1 121809Z 19014KT 07/M05 A302 RMK A01 T00731049  RH  042%=      5-min Rain = 0
KGU1 121810Z 19015KT 07/M05 A302 RMK A01 T00711050  RH  042%=      5-min Rain = 0
KGU1 121811Z 19015KT 07/M05 A302 RMK A01 T00711049  RH  043%=      5-min Rain = 0
KGU1 121812Z 17017G22KT 07/M05 A3019 RMK A01 T00711049  RH  043%=      5-min Rain = 0
KGU1 121813Z 18014KT 07/M05 A302 RMK A01 T00721050  RH  042%=      5-min Rain = 0
KGU1 121814Z 19011KT 07/M05 A302 RMK A01 T00731049  RH  042%=      5-min Rain = 0
KGU1 121815Z 18012KT 08/M05 A3019 RMK A01 T00751049  RH  042%=      5-min Rain = 0
KGU1 121816Z 19015G20KT 08/M05 A3019 RMK A01 T00761050  RH  041%=      5-min Rain = 0
KGU1 121817Z 18016KT 08/M05 A3019 RMK A01 T00761052  RH  040%=      5-min Rain = 0
KGU1 121818Z 18013KT 08/M05 A3019 RMK A01 T00761048  RH  042%=      5-min Rain = 0
KGU1 121819Z 18013KT 08/M05 A3019 RMK A01 T00791050  RH  040%=      5-min Rain = 0
KGU1 121820Z 19016KT 08/M05 A3019 RMK A01 T00791053  RH  039%=      5-min Rain = 0
KGU1 121821Z 18013KT 08/M05 A3019 RMK A01 T00791052  RH  039%=      5-min Rain = 0
KGU1 121822Z 19014KT 08/M05 A3018 RMK A01 T00801051  RH  039%=      5-min Rain = 0
KGU1 121823Z 19016KT 08/M05 A3018 RMK A01 T00801053  RH  039%=      5-min Rain = 0
KGU1 121824Z 19017KT 08/M06 A3018 RMK A01 T00801056  RH  038%=      5-min Rain = 0
KGU1 121825Z 19019KT 08/M06 A3018 RMK A01 T00801057  RH  038%=      5-min Rain = 0
KGU1 121826Z 18014KT 08/M06 A3018 RMK A01 T00801056  RH  038%=      5-min Rain = 0
KGU1 121827Z 19011G17KT 08/M05 A3018 RMK A01 T00831053  RH  038%=      5-min Rain = 0
KGU1 121828Z 17017G23KT 09/M06 A3017 RMK A01 T00851057  RH  036%=      5-min Rain = 0
KGU1 121829Z 17014KT 09/M06 A3017 RMK A01 T00871058  RH  036%=      5-min Rain = 0
KGU1 121830Z 17013KT 09/M06 A3018 RMK A01 T00891057  RH  036%=      5-min Rain = 0
KGU1 121831Z 18015KT 09/M06 A3017 RMK A01 T00911062  RH  034%=      5-min Rain = 0
KGU1 121832Z 17016KT 09/M06 A3017 RMK A01 T00931058  RH  034%=      5-min Rain = 0
KGU1 121833Z 19012KT 10/M07 A3017 RMK A01 T00951068  RH  031%=      5-min Rain = 0
KGU1 121834Z 18011G16KT 10/M07 A3017 RMK A01 T00991071  RH  030%=      5-min Rain = 0
KGU1 121835Z 18014KT 10/M06 A3017 RMK A01 T00991064  RH  031%=      5-min Rain = 0
KGU1 121836Z 19010G15KT 10/M06 A3017 RMK A01 T00981063  RH  032%=      5-min Rain = 0
KGU1 121837Z 23012KT 10/M07 A3017 RMK A01 T01001066  RH  031%=      5-min Rain = 0
KGU1 121838Z 26006G14KT 10/M08 A3017 RMK A01 T01031076  RH  028%=      5-min Rain = 0
KGU1 121839Z 17010KT 11/M08 A3017 RMK A01 T01071077  RH  027%=      5-min Rain = 0
KGU1 121840Z 16009KT 11/M07 A3016 RMK A01 T01071072  RH  028%=      5-min Rain = 0
KGU1 121841Z 16011G17KT 11/M08 A3016 RMK A01 T01081075  RH  027%=      5-min Rain = 0
KGU1 121842Z 15014KT 11/M07 A3016 RMK A01 T01101071  RH  028%=      5-min Rain = 0
KGU1 121843Z 13009G14KT 11/M08 A3016 RMK A01 T01111084  RH  025%=      5-min Rain = 0
KGU1 121844Z 16010G16KT 11/M08 A3016 RMK A01 T01141082  RH  025%=      5-min Rain = 0
KGU1 121845Z 16015KT 12/M07 A3015 RMK A01 T01151069  RH  027%=      5-min Rain = 0
KGU1 121846Z 15014G19KT 11/M07 A3015 RMK A01 T01131074  RH  027%=      5-min Rain = 0
KGU1 121847Z 15008KT 11/M08 A3015 RMK A01 T01141075  RH  026%=      5-min Rain = 0
KGU1 121848Z 18008KT 12/M08 A3015 RMK A01 T01161079  RH  025%=      5-min Rain = 0
KGU1 121849Z 17006KT 12/M09 A3015 RMK A01 T01221086  RH  023%=      5-min Rain = 0
KGU1 121850Z 26004G9KT 13/M08 A3015 RMK A01 T01251083  RH  023%=      5-min Rain = 0
KGU1 121851Z 26004KT 13/M09 A3016 RMK A01 T01261090  RH  022%=      5-min Rain = 0
KGU1 121852Z 31000KT 13/M10 A3016 RMK A01 T01271096  RH  020%=      5-min Rain = 0
KGU1 121853Z 28003KT 13/M08 A3016 RMK A01 T01281084  RH  022%=      5-min Rain = 0
KGU1 121854Z 17006G15KT 13/M08 A3016 RMK A01 T01301076  RH  023%=      5-min Rain = 0
KGU1 121855Z 17015KT 13/M07 A3016 RMK A01 T01261069  RH  025%=      5-min Rain = 0
KGU1 121856Z 17011G17KT 12/M07 A3016 RMK A01 T01191065  RH  027%=      5-min Rain = 0
KGU1 121857Z 19013KT 12/M08 A3016 RMK A01 T01191076  RH  025%=      5-min Rain = 0
KGU1 121858Z 20009KT 12/M08 A3016 RMK A01 T01191078  RH  025%=      5-min Rain = 0
KGU1 121859Z 15011KT 12/M07 A3016 RMK A01 T01181071  RH  026%=      5-min Rain = 0
KGU1 121900Z 15013KT 12/M07 A3016 RMK A01 T01181070  RH  026%=      5-min Rain = 0
KGU1 121901Z 16009KT 12/M09 A3016 RMK A01 T01191085  RH  023%=      5-min Rain = 0
KGU1 121902Z 15010KT 12/M08 A3016 RMK A01 T01201081  RH  024%=      5-min Rain = 0
KGU1 121903Z 14009KT 12/M09 A3016 RMK A01 T01221093  RH  022%=      5-min Rain = 0
KGU1 121904Z 14008KT 12/M09 A3016 RMK A01 T01231087  RH  022%=      5-min Rain = 0
KGU1 121905Z 14008G15KT 13/M09 A3015 RMK A01 T01261086  RH  022%=      5-min Rain = 0
KGU1 121906Z 14011G16KT 13/M09 A3015 RMK A01 T01281085  RH  022%=      5-min Rain = 0
KGU1 121907Z 14010KT 13/M08 A3015 RMK A01 T01281081  RH  023%=      5-min Rain = 0
KGU1 121908Z 14005KT 13/M09 A3015 RMK A01 T01301088  RH  021%=      5-min Rain = 0
KGU1 121909Z 16011G17KT 13/M08 A3015 RMK A01 T01311079  RH  023%=      5-min Rain = 0
KGU1 121910Z 15011KT 13/M07 A3015 RMK A01 T01281074  RH  024%=      5-min Rain = 0
KGU1 121911Z 18014G20KT 13/M08 A3015 RMK A01 T01271079  RH  023%=      5-min Rain = 0
KGU1 121912Z 20018G23KT 13/M08 A3015 RMK A01 T01281081  RH  023%=      5-min Rain = 0
KGU1 121913Z 20012KT 13/M08 A3015 RMK A01 T01271079  RH  023%=      5-min Rain = 0
KGU1 121914Z 17015KT 12/M08 A3015 RMK A01 T01241077  RH  024%=      5-min Rain = 0
KGU1 121915Z 16016KT 12/M08 A3015 RMK A01 T01211079  RH  024%=      5-min Rain = 0
KGU1 121916Z 20015G21KT 12/M08 A3015 RMK A01 T01211083  RH  023%=      5-min Rain = 0
KGU1 121917Z 19012G17KT 12/M09 A3015 RMK A01 T01221089  RH  022%=      5-min Rain = 0
KGU1 121918Z 21012KT 12/M08 A3015 RMK A01 T01231083  RH  023%=      5-min Rain = 0
KGU1 121919Z 20009KT 12/M08 A3015 RMK A01 T01221083  RH  023%=      5-min Rain = 0
KGU1 121920Z 19009G15KT 12/M08 A3015 RMK A01 T01211081  RH  024%=      5-min Rain = 0
KGU1 121921Z 20010KT 12/M08 A3015 RMK A01 T01211079  RH  024%=      5-min Rain = 0
KGU1 121922Z 17012KT 12/M08 A3015 RMK A01 T01231078  RH  024%=      5-min Rain = 0
KGU1 121923Z 17014KT 12/M08 A3015 RMK A01 T01231079  RH  024%=      5-min Rain = 0
KGU1 121924Z 16013G18KT 12/M08 A3014 RMK A01 T01231080  RH  024%=      5-min Rain = 0
KGU1 121925Z 20010G15KT 12/M09 A3014 RMK A01 T01241086  RH  022%=      5-min Rain = 0
KGU1 121926Z 18011KT 13/M09 A3014 RMK A01 T01271086  RH  022%=      5-min Rain = 0
KGU1 121927Z 16010KT 13/M09 A3014 RMK A01 T01271089  RH  022%=      5-min Rain = 0
KGU1 121928Z 19007G12KT 13/M09 A3014 RMK A01 T01271087  RH  022%=      5-min Rain = 0
KGU1 121929Z 31004KT 13/M09 A3014 RMK A01 T01301091  RH  021%=      5-min Rain = 0
KGU1 121930Z 28002KT 13/M10 A3014 RMK A01 T01321100  RH  019%=      5-min Rain = 0
KGU1 121931Z 02003KT 13/M09 A3014 RMK A01 T01331093  RH  020%=      5-min Rain = 0
KGU1 121932Z 07005KT 14/M09 A3014 RMK A01 T01351090  RH  020%=      5-min Rain = 0
KGU1 121933Z 03005KT 14/M10 A3014 RMK A01 T01361095  RH  019%=      5-min Rain = 0
KGU1 121934Z 32003KT 13/M10 A3014 RMK A01 T01341099  RH  019%=      5-min Rain = 0
KGU1 121935Z 27004KT 14/M10 A3014 RMK A01 T01351097  RH  019%=      5-min Rain = 0
KGU1 121936Z 29007KT 14/M10 A3014 RMK A01 T01361096  RH  019%=      5-min Rain = 0
KGU1 121937Z 34005KT 14/M09 A3014 RMK A01 T01381087  RH  020%=      5-min Rain = 0
KGU1 121938Z 33009KT 14/M09 A3014 RMK A01 T01401090  RH  020%=      5-min Rain = 0
KGU1 121939Z 31008KT 14/M10 A3014 RMK A01 T01391095  RH  019%=      5-min Rain = 0
KGU1 121940Z 30010KT 14/M09 A3014 RMK A01 T01391094  RH  019%=      5-min Rain = 0
KGU1 121941Z 30008KT 14/M10 A3014 RMK A01 T01391095  RH  019%=      5-min Rain = 0
KGU1 121942Z 32012KT 14/M10 A3014 RMK A01 T01401097  RH  019%=      5-min Rain = 0
KGU1 121943Z 33010KT 14/M10 A3014 RMK A01 T01401096  RH  019%=      5-min Rain = 0
KGU1 121944Z 32009KT 14/M10 A3014 RMK A01 T01401095  RH  019%=      5-min Rain = 0
KGU1 121945Z 32010KT 14/M09 A3014 RMK A01 T01421091  RH  019%=      5-min Rain = 0
KGU1 121946Z 31013KT 14/M10 A3014 RMK A01 T01411096  RH  019%=      5-min Rain = 0
KGU1 121947Z 32009KT 14/M09 A3014 RMK A01 T01391093  RH  019%=      5-min Rain = 0
KGU1 121948Z 33010KT 14/M09 A3014 RMK A01 T01391094  RH  019%=      5-min Rain = 0
KGU1 121949Z 35010G15KT 14/M10 A3014 RMK A01 T01381095  RH  019%=      5-min Rain = 0
KGU1 121950Z 31009KT 14/M09 A3014 RMK A01 T01391087  RH  020%=      5-min Rain = 0
KGU1 121951Z 33009KT 14/M09 A3014 RMK A01 T01411090  RH  019%=      5-min Rain = 0
KGU1 121952Z 34013KT 14/M09 A3014 RMK A01 T01411093  RH  019%=      5-min Rain = 0
KGU1 121953Z 34011KT 14/M09 A3014 RMK A01 T01391094  RH  019%=      5-min Rain = 0
KGU1 121954Z 33010KT 14/M09 A3014 RMK A01 T01381091  RH  020%=      5-min Rain = 0
KGU1 121955Z 31009KT 14/M09 A3014 RMK A01 T01381087  RH  020%=      5-min Rain = 0
KGU1 121956Z 31013KT 14/M09 A3014 RMK A01 T01391088  RH  020%=      5-min Rain = 0
KGU1 121957Z 33013KT 14/M09 A3014 RMK A01 T01401086  RH  020%=      5-min Rain = 0
KGU1 121958Z 33015KT 14/M09 A3014 RMK A01 T01411090  RH  020%=      5-min Rain = 0
KGU1 121959Z 34013KT 14/M09 A3014 RMK A01 T01391090  RH  020%=      5-min Rain = 0
KGU1 122000Z 34011KT 14/M09 A3014 RMK A01 T01401087  RH  020%=      5-min Rain = 0
KGU1 122001Z 31007KT 14/M09 A3014 RMK A01 T01401089  RH  020%=      5-min Rain = 0
KGU1 122002Z 33008KT 14/M09 A3014 RMK A01 T01401088  RH  020%=      5-min Rain = 0
KGU1 122003Z 33007KT 14/M09 A3014 RMK A01 T01401089  RH  020%=      5-min Rain = 0
KGU1 122004Z 32010G15KT 14/M09 A3014 RMK A01 T01401087  RH  020%=      5-min Rain = 0
KGU1 122005Z 33013KT 14/M09 A3014 RMK A01 T01391091  RH  020%=      5-min Rain = 0
KGU1 122006Z 31006KT 14/M09 A3014 RMK A01 T01381088  RH  020%=      5-min Rain = 0
KGU1 122007Z 33010G15KT 14/M09 A3014 RMK A01 T01401085  RH  020%=      5-min Rain = 0
KGU1 122008Z 34012KT 14/M09 A3014 RMK A01 T01391089  RH  020%=      5-min Rain = 0
KGU1 122009Z 31009KT 14/M08 A3014 RMK A01 T01391082  RH  021%=      5-min Rain = 0
KGU1 122010Z 30013KT 14/M08 A3013 RMK A01 T01391083  RH  021%=      5-min Rain = 0
KGU1 122011Z 31013KT 14/M08 A3013 RMK A01 T01401081  RH  021%=      5-min Rain = 0
KGU1 122012Z 30015KT 14/M08 A3013 RMK A01 T01401083  RH  021%=      5-min Rain = 0
KGU1 122013Z 29016KT 14/M08 A3013 RMK A01 T01391084  RH  021%=      5-min Rain = 0
KGU1 122014Z 29019G24KT 14/M09 A3013 RMK A01 T01361087  RH  021%=      5-min Rain = 0
KGU1 122015Z 29017G22KT 13/M08 A3013 RMK A01 T01341084  RH  021%=      5-min Rain = 0
KGU1 122016Z 29018KT 13/M08 A3013 RMK A01 T01341084  RH  021%=      5-min Rain = 0
KGU1 122017Z 29019G24KT 13/M09 A3013 RMK A01 T01341085  RH  021%=      5-min Rain = 0
KGU1 122018Z 29020KT 13/M09 A3013 RMK A01 T01331085  RH  021%=      5-min Rain = 0
KGU1 122019Z 29017KT 13/M09 A3013 RMK A01 T01331086  RH  021%=      5-min Rain = 0
KGU1 122020Z 29016KT 13/M09 A3013 RMK A01 T01321086  RH  021%=      5-min Rain = 0
KGU1 122021Z 29016KT 13/M09 A3013 RMK A01 T01321087  RH  021%=      5-min Rain = 0
KGU1 122022Z 29018KT 13/M09 A3013 RMK A01 T01331086  RH  021%=      5-min Rain = 0
KGU1 122023Z 29015KT 13/M09 A3013 RMK A01 T01331085  RH  021%=      5-min Rain = 0
KGU1 122024Z 30015KT 13/M09 A3013 RMK A01 T01341086  RH  021%=      5-min Rain = 0
KGU1 122025Z 28014KT 14/M09 A3013 RMK A01 T01351085  RH  021%=      5-min Rain = 0
KGU1 122026Z 30013G18KT 14/M08 A3013 RMK A01 T01361083  RH  021%=      5-min Rain = 0
KGU1 122027Z 30013KT 14/M09 A3013 RMK A01 T01361085  RH  021%=      5-min Rain = 0
KGU1 122028Z 29014KT 14/M08 A3013 RMK A01 T01361083  RH  021%=      5-min Rain = 0
KGU1 122029Z 29009KT 14/M08 A3013 RMK A01 T01381079  RH  022%=      5-min Rain = 0
KGU1 122030Z 29015KT 14/M08 A3013 RMK A01 T01401084  RH  021%=      5-min Rain = 0
KGU1 122031Z 29014KT 14/M09 A3013 RMK A01 T01391085  RH  021%=      5-min Rain = 0
KGU1 122032Z 29012KT 14/M09 A3013 RMK A01 T01381085  RH  021%=      5-min Rain = 0
KGU1 122033Z 29013KT 14/M08 A3013 RMK A01 T01391082  RH  021%=      5-min Rain = 0
KGU1 122034Z 30014KT 14/M08 A3013 RMK A01 T01391084  RH  021%=      5-min Rain = 0
KGU1 122035Z 30015KT 14/M08 A3013 RMK A01 T01401081  RH  021%=      5-min Rain = 0
KGU1 122036Z 31015KT 14/M08 A3013 RMK A01 T01391084  RH  021%=      5-min Rain = 0
KGU1 122037Z 31013KT 14/M09 A3013 RMK A01 T01391085  RH  021%=      5-min Rain = 0
KGU1 122038Z 30015KT 14/M08 A3013 RMK A01 T01381083  RH  021%=      5-min Rain = 0
KGU1 122039Z 30019G26KT 14/M08 A3013 RMK A01 T01361084  RH  021%=      5-min Rain = 0
KGU1 122040Z 31016G21KT 13/M09 A3013 RMK A01 T01341087  RH  021%=      5-min Rain = 0
KGU1 122041Z 33013KT 13/M09 A3013 RMK A01 T01321085  RH  021%=      5-min Rain = 0
KGU1 122042Z 31014KT 13/M08 A3013 RMK A01 T01341083  RH  022%=      5-min Rain = 0
KGU1 122043Z 30018KT 13/M08 A3013 RMK A01 T01341082  RH  022%=      5-min Rain = 0
KGU1 122044Z 30016G21KT 14/M08 A3013 RMK A01 T01351080  RH  022%=      5-min Rain = 0
KGU1 122045Z 29014KT 14/M09 A3013 RMK A01 T01351085  RH  021%=      5-min Rain = 0
KGU1 122046Z 30016KT 14/M08 A3013 RMK A01 T01351084  RH  021%=      5-min Rain = 0
KGU1 122047Z 31014G19KT 13/M08 A3013 RMK A01 T01341083  RH  022%=      5-min Rain = 0
KGU1 122048Z 31010KT 14/M08 A3013 RMK A01 T01351082  RH  022%=      5-min Rain = 0
KGU1 122049Z 31013KT 14/M09 A3013 RMK A01 T01361085  RH  021%=      5-min Rain = 0
KGU1 122050Z 30014KT 13/M08 A3013 RMK A01 T01341084  RH  021%=      5-min Rain = 0
KGU1 122051Z 31014KT 13/M09 A3013 RMK A01 T01341085  RH  021%=      5-min Rain = 0
KGU1 122052Z 31011KT 14/M08 A3013 RMK A01 T01351082  RH  022%=      5-min Rain = 0
KGU1 122053Z 31012KT 14/M08 A3013 RMK A01 T01361080  RH  022%=      5-min Rain = 0
KGU1 122054Z 31009KT 14/M08 A3013 RMK A01 T01381079  RH  022%=      5-min Rain = 0
KGU1 122055Z 32010KT 14/M08 A3013 RMK A01 T01401079  RH  021%=      5-min Rain = 0
KGU1 122056Z 33012KT 14/M08 A3014 RMK A01 T01421083  RH  021%=      5-min Rain = 0
KGU1 122057Z 34006KT 14/M08 A3013 RMK A01 T01421083  RH  021%=      5-min Rain = 0
KGU1 122058Z 33009KT 14/M08 A3014 RMK A01 T01421082  RH  021%=      5-min Rain = 0
KGU1 122059Z 33013KT 14/M09 A3014 RMK A01 T01431086  RH  020%=      5-min Rain = 0
KGU1 122100Z 31010KT 14/M09 A3014 RMK A01 T01421085  RH  020%=      5-min Rain = 0
KGU1 122101Z 31009KT 14/M09 A3013 RMK A01 T01411086  RH  020%=      5-min Rain = 0
KGU1 122102Z 34010KT 14/M08 A3014 RMK A01 T01421083  RH  020%=      5-min Rain = 0
KGU1 122103Z 33010KT 14/M09 A3014 RMK A01 T01421087  RH  020%=      5-min Rain = 0
KGU1 122104Z 34006KT 14/M09 A3013 RMK A01 T01421087  RH  020%=      5-min Rain = 0
KGU1 122105Z 31007KT 14/M08 A3013 RMK A01 T01421084  RH  020%=      5-min Rain = 0
KGU1 122106Z 30007KT 14/M08 A3013 RMK A01 T01441081  RH  021%=      5-min Rain = 0
KGU1 122107Z 29014KT 14/M08 A3013 RMK A01 T01441084  RH  020%=      5-min Rain = 0
KGU1 122108Z 30013KT 14/M08 A3013 RMK A01 T01441081  RH  021%=      5-min Rain = 0
KGU1 122109Z 29016KT 14/M08 A3013 RMK A01 T01431082  RH  021%=      5-min Rain = 0
KGU1 122110Z 31014KT 14/M08 A3013 RMK A01 T01411082  RH  021%=      5-min Rain = 0
KGU1 122111Z 31011KT 14/M08 A3013 RMK A01 T01401082  RH  021%=      5-min Rain = 0
KGU1 122112Z 31011KT 14/M08 A3013 RMK A01 T01401083  RH  021%=      5-min Rain = 0
KGU1 122113Z 33009KT 14/M08 A3013 RMK A01 T01411082  RH  021%=      5-min Rain = 0
KGU1 122114Z 31008KT 14/M08 A3013 RMK A01 T01431080  RH  021%=      5-min Rain = 0
KGU1 122115Z 30015KT 14/M08 A3013 RMK A01 T01441081  RH  021%=      5-min Rain = 0
KGU1 122116Z 29015KT 14/M08 A3013 RMK A01 T01421082  RH  021%=      5-min Rain = 0
KGU1 122117Z 30015KT 14/M08 A3013 RMK A01 T01411083  RH  021%=      5-min Rain = 0
KGU1 122118Z 30014KT 14/M09 A3013 RMK A01 T01401085  RH  020%=      5-min Rain = 0
KGU1 122119Z 30013KT 14/M08 A3013 RMK A01 T01401084  RH  021%=      5-min Rain = 0
KGU1 122120Z 31013KT 14/M08 A3013 RMK A01 T01391083  RH  021%=      5-min Rain = 0
KGU1 122121Z 30012KT 14/M08 A3013 RMK A01 T01401081  RH  021%=      5-min Rain = 0
KGU1 122122Z 30012KT 14/M09 A3013 RMK A01 T01411085  RH  020%=      5-min Rain = 0
KGU1 122123Z 30010KT 14/M08 A3013 RMK A01 T01411084  RH  020%=      5-min Rain = 0
KGU1 122124Z 30012KT 14/M08 A3013 RMK A01 T01421083  RH  020%=      5-min Rain = 0
KGU1 122125Z 29012KT 14/M09 A3013 RMK A01 T01411085  RH  020%=      5-min Rain = 0
KGU1 122126Z 30009KT 14/M08 A3013 RMK A01 T01411083  RH  021%=      5-min Rain = 0
KGU1 122127Z 30008KT 14/M08 A3013 RMK A01 T01421083  RH  020%=      5-min Rain = 0
KGU1 122128Z 34007KT 14/M08 A3013 RMK A01 T01431083  RH  020%=      5-min Rain = 0
KGU1 122129Z 30012G19KT 14/M08 A3013 RMK A01 T01431083  RH  020%=      5-min Rain = 0
KGU1 122130Z 29016KT 14/M08 A3013 RMK A01 T01421081  RH  021%=      5-min Rain = 0
KGU1 122131Z 29017KT 14/M08 A3013 RMK A01 T01401081  RH  021%=      5-min Rain = 0
KGU1 122132Z 30015G20KT 14/M08 A3014 RMK A01 T01381084  RH  021%=      5-min Rain = 0
KGU1 122133Z 30015KT 14/M08 A3014 RMK A01 T01371083  RH  021%=      5-min Rain = 0
KGU1 122134Z 30011KT 14/M08 A3014 RMK A01 T01371081  RH  021%=      5-min Rain = 0
KGU1 122135Z 31013KT 14/M08 A3014 RMK A01 T01371082  RH  021%=      5-min Rain = 0
KGU1 122136Z 30012KT 14/M08 A3013 RMK A01 T01381079  RH  022%=      5-min Rain = 0
KGU1 122137Z 30013KT 14/M08 A3013 RMK A01 T01381081  RH  021%=      5-min Rain = 0
KGU1 122138Z 29015KT 14/M08 A3013 RMK A01 T01371084  RH  021%=      5-min Rain = 0
KGU1 122139Z 29013KT 14/M08 A3013 RMK A01 T01361080  RH  022%=      5-min Rain = 0
KGU1 122140Z 30010KT 14/M08 A3013 RMK A01 T01371080  RH  022%=      5-min Rain = 0
KGU1 122141Z 29015KT 14/M08 A3013 RMK A01 T01381082  RH  021%=      5-min Rain = 0
KGU1 122142Z 29012KT 14/M08 A3013 RMK A01 T01361083  RH  021%=      5-min Rain = 0
KGU1 122143Z 29013KT 14/M08 A3013 RMK A01 T01361084  RH  021%=      5-min Rain = 0
KGU1 122144Z 30010KT 14/M08 A3013 RMK A01 T01361082  RH  021%=      5-min Rain = 0
KGU1 122145Z 29014KT 14/M08 A3013 RMK A01 T01371084  RH  021%=      5-min Rain = 0
KGU1 122146Z 29012KT 14/M08 A3013 RMK A01 T01371084  RH  021%=      5-min Rain = 0
KGU1 122147Z 29011KT 14/M08 A3013 RMK A01 T01381081  RH  021%=      5-min Rain = 0
KGU1 122148Z 29012KT 14/M08 A3013 RMK A01 T01381084  RH  021%=      5-min Rain = 0
KGU1 122149Z 29012KT 14/M08 A3013 RMK A01 T01381084  RH  021%=      5-min Rain = 0
KGU1 122150Z 29013KT 14/M08 A3013 RMK A01 T01381084  RH  021%=      5-min Rain = 0
KGU1 122151Z 29013KT 14/M09 A3013 RMK A01 T01381085  RH  021%=      5-min Rain = 0
KGU1 122152Z 28011KT 14/M08 A3013 RMK A01 T01371081  RH  021%=      5-min Rain = 0
KGU1 122153Z 29013KT 14/M08 A3013 RMK A01 T01391081  RH  021%=      5-min Rain = 0
KGU1 122154Z 28012KT 14/M08 A3013 RMK A01 T01391083  RH  021%=      5-min Rain = 0
KGU1 122155Z 27011KT 14/M08 A3013 RMK A01 T01381084  RH  021%=      5-min Rain = 0
KGU1 122156Z 28010KT 14/M09 A3013 RMK A01 T01391085  RH  021%=      5-min Rain = 0
KGU1 122157Z 28009KT 14/M08 A3013 RMK A01 T01391083  RH  021%=      5-min Rain = 0
KGU1 122158Z 28009KT 14/M09 A3013 RMK A01 T01401085  RH  020%=      5-min Rain = 0
KGU1 122159Z 29008KT 14/M08 A3013 RMK A01 T01391083  RH  021%=      5-min Rain = 0
KGU1 122200Z 28008KT 14/M08 A3013 RMK A01 T01411082  RH  021%=      5-min Rain = 0
KGU1 122201Z 30010KT 14/M08 A3013 RMK A01 T01421082  RH  021%=      5-min Rain = 0
KGU1 122202Z 32004KT 14/M09 A3013 RMK A01 T01431088  RH  020%=      5-min Rain = 0
KGU1 122203Z 30002KT 14/M09 A3013 RMK A01 T01441087  RH  020%=      5-min Rain = 0
KGU1 122204Z 29004KT 15/M09 A3013 RMK A01 T01461086  RH  019%=      5-min Rain = 0
KGU1 122205Z 29008KT 15/M08 A3013 RMK A01 T01471082  RH  020%=      5-min Rain = 0
KGU1 122206Z 27008KT 15/M08 A3013 RMK A01 T01471083  RH  020%=      5-min Rain = 0
KGU1 122207Z 27007KT 15/M09 A3013 RMK A01 T01471088  RH  019%=      5-min Rain = 0
KGU1 122208Z 27007KT 15/M09 A3013 RMK A01 T01461089  RH  019%=      5-min Rain = 0
KGU1 122209Z 27006KT 15/M09 A3013 RMK A01 T01461087  RH  019%=      5-min Rain = 0
KGU1 122210Z 22004KT 15/M08 A3013 RMK A01 T01471083  RH  020%=      5-min Rain = 0
KGU1 122211Z 24005KT 15/M08 A3013 RMK A01 T01491084  RH  019%=      5-min Rain = 0
KGU1 122212Z 23005KT 15/M08 A3013 RMK A01 T01511084  RH  019%=      5-min Rain = 0
KGU1 122213Z 21005KT 15/M08 A3013 RMK A01 T01511080  RH  020%=      5-min Rain = 0
KGU1 122214Z 22007G12KT 15/M08 A3013 RMK A01 T01521082  RH  019%=      5-min Rain = 0
KGU1 122215Z 23009KT 15/M09 A3013 RMK A01 T01511086  RH  019%=      5-min Rain = 0
KGU1 122216Z 20006KT 15/M08 A3013 RMK A01 T01491083  RH  020%=      5-min Rain = 0
KGU1 122217Z 19005KT 15/M08 A3013 RMK A01 T01481079  RH  020%=      5-min Rain = 0
KGU1 122218Z 24009G16KT 15/M08 A3013 RMK A01 T01481083  RH  020%=      5-min Rain = 0
KGU1 122219Z 24003KT 15/M09 A3014 RMK A01 T01471086  RH  019%=      5-min Rain = 0
KGU1 122220Z 17007KT 15/M08 A3014 RMK A01 T01471077  RH  021%=      5-min Rain = 0
KGU1 122221Z 18009KT 14/M08 A3014 RMK A01 T01441079  RH  021%=      5-min Rain = 0
KGU1 122222Z 19007KT 14/M08 A3014 RMK A01 T01421082  RH  021%=      5-min Rain = 0
KGU1 122223Z 19008KT 14/M08 A3014 RMK A01 T01411081  RH  021%=      5-min Rain = 0
KGU1 122224Z 18008KT 14/M08 A3014 RMK A01 T01401080  RH  021%=      5-min Rain = 0
KGU1 122225Z 19007KT 14/M08 A3014 RMK A01 T01391079  RH  021%=      5-min Rain = 0
KGU1 122226Z 19005KT 14/M08 A3014 RMK A01 T01391078  RH  022%=      5-min Rain = 0
KGU1 122227Z 22007KT 14/M08 A3014 RMK A01 T01391079  RH  022%=      5-min Rain = 0
KGU1 122228Z 21006KT 14/M08 A3014 RMK A01 T01391082  RH  021%=      5-min Rain = 0
KGU1 122229Z 17006KT 14/M08 A3014 RMK A01 T01401084  RH  021%=      5-min Rain = 0
KGU1 122230Z 16003KT 14/M09 A3014 RMK A01 T01411086  RH  020%=      5-min Rain = 0
KGU1 122231Z 09001KT 14/M09 A3014 RMK A01 T01421086  RH  020%=      5-min Rain = 0
KGU1 122232Z 29002KT 14/M08 A3014 RMK A01 T01431084  RH  020%=      5-min Rain = 0
KGU1 122233Z 17001KT 14/M09 A3015 RMK A01 T01431085  RH  020%=      5-min Rain = 0
KGU1 122234Z 08001KT 15/M08 A3015 RMK A01 T01451084  RH  020%=      5-min Rain = 0
KGU1 122235Z 05004KT 15/M09 A3015 RMK A01 T01451087  RH  019%=      5-min Rain = 0
KGU1 122236Z 02003KT 14/M09 A3015 RMK A01 T01441089  RH  019%=      5-min Rain = 0
KGU1 122237Z 02002KT 14/M09 A3015 RMK A01 T01421089  RH  020%=      5-min Rain = 0
KGU1 122238Z 00002KT 14/M09 A3015 RMK A01 T01421091  RH  019%=      5-min Rain = 0
KGU1 122239Z 34001KT 14/M09 A3015 RMK A01 T01421091  RH  019%=      5-min Rain = 0
KGU1 122240Z 31001KT 14/M09 A3015 RMK A01 T01421090  RH  019%=      5-min Rain = 0
KGU1 122241Z 31004KT 14/M09 A3015 RMK A01 T01441087  RH  020%=      5-min Rain = 0
KGU1 122242Z 29004KT 14/M09 A3015 RMK A01 T01441085  RH  020%=      5-min Rain = 0
KGU1 122243Z 30009KT 14/M08 A3015 RMK A01 T01411084  RH  020%=      5-min Rain = 0
KGU1 122244Z 29016KT 14/M08 A3015 RMK A01 T01381084  RH  021%=      5-min Rain = 0
KGU1 122245Z 29012KT 14/M08 A3015 RMK A01 T01351084  RH  021%=      5-min Rain = 0
KGU1 122246Z 30012KT 13/M08 A3015 RMK A01 T01331083  RH  022%=      5-min Rain = 0
KGU1 122247Z 30011KT 13/M08 A3015 RMK A01 T01311084  RH  022%=      5-min Rain = 0
KGU1 122248Z 31010KT 13/M08 A3015 RMK A01 T01301081  RH  022%=      5-min Rain = 0
KGU1 122249Z 30010KT 13/M08 A3015 RMK A01 T01301082  RH  022%=      5-min Rain = 0
KGU1 122250Z 31008KT 13/M08 A3015 RMK A01 T01301081  RH  023%=      5-min Rain = 0
KGU1 122251Z 30009KT 13/M08 A3015 RMK A01 T01301081  RH  022%=      5-min Rain = 0
KGU1 122252Z 30009KT 13/M08 A3015 RMK A01 T01301079  RH  023%=      5-min Rain = 0
KGU1 122253Z 29010KT 13/M08 A3015 RMK A01 T01301084  RH  022%=      5-min Rain = 0
KGU1 122254Z 30008G13KT 13/M08 A3015 RMK A01 T01301081  RH  022%=      5-min Rain = 0
KGU1 122255Z 29011KT 13/M08 A3015 RMK A01 T01301083  RH  022%=      5-min Rain = 0
KGU1 122256Z 30011KT 13/M08 A3015 RMK A01 T01291082  RH  023%=      5-min Rain = 0
KGU1 122257Z 29012KT 13/M08 A3015 RMK A01 T01291082  RH  023%=      5-min Rain = 0
KGU1 122258Z 29009KT 13/M08 A3015 RMK A01 T01291081  RH  023%=      5-min Rain = 0
KGU1 122259Z 28007KT 13/M08 A3015 RMK A01 T01291083  RH  022%=      5-min Rain = 0
KGU1 122300Z 30010KT 13/M08 A3015 RMK A01 T01291082  RH  022%=      5-min Rain = 0
KGU1 122301Z 30009KT 13/M08 A3015 RMK A01 T01291082  RH  022%=      5-min Rain = 0
KGU1 122302Z 29012KT 13/M08 A3015 RMK A01 T01291084  RH  022%=      5-min Rain = 0
KGU1 122303Z 29009KT 13/M08 A3015 RMK A01 T01291084  RH  022%=      5-min Rain = 0
KGU1 122304Z 28008KT 13/M08 A3015 RMK A01 T01291084  RH  022%=      5-min Rain = 0
KGU1 122305Z 28009KT 13/M08 A3015 RMK A01 T01301084  RH  022%=      5-min Rain = 0
KGU1 122306Z 30009KT 13/M08 A3015 RMK A01 T01301082  RH  022%=      5-min Rain = 0
KGU1 122307Z 30008KT 13/M08 A3015 RMK A01 T01301081  RH  022%=      5-min Rain = 0
KGU1 122308Z 29008KT 13/M08 A3015 RMK A01 T01301080  RH  023%=      5-min Rain = 0
KGU1 122309Z 29009KT 13/M08 A3015 RMK A01 T01301082  RH  022%=      5-min Rain = 0
KGU1 122310Z 29008KT 13/M08 A3015 RMK A01 T01291084  RH  022%=      5-min Rain = 0
KGU1 122311Z 28007KT 13/M08 A3015 RMK A01 T01291082  RH  022%=      5-min Rain = 0
KGU1 122312Z 29006KT 13/M08 A3015 RMK A01 T01301079  RH  023%=      5-min Rain = 0
KGU1 122313Z 29006KT 13/M08 A3015 RMK A01 T01301083  RH  022%=      5-min Rain = 0
KGU1 122314Z 31006KT 13/M08 A3015 RMK A01 T01301082  RH  022%=      5-min Rain = 0
KGU1 122315Z 32007KT 13/M08 A3016 RMK A01 T01291079  RH  023%=      5-min Rain = 0
KGU1 122316Z 33008KT 13/M08 A3016 RMK A01 T01281081  RH  023%=      5-min Rain = 0
KGU1 122317Z 33006KT 13/M08 A3016 RMK A01 T01281080  RH  023%=      5-min Rain = 0
KGU1 122318Z 31010KT 13/M08 A3016 RMK A01 T01271080  RH  023%=      5-min Rain = 0
KGU1 122319Z 29013KT 13/M08 A3016 RMK A01 T01261082  RH  023%=      5-min Rain = 0
KGU1 122320Z 30012KT 13/M08 A3016 RMK A01 T01251081  RH  023%=      5-min Rain = 0
KGU1 122321Z 30011KT 13/M08 A3016 RMK A01 T01251081  RH  023%=      5-min Rain = 0
KGU1 122322Z 33008KT 13/M08 A3016 RMK A01 T01251080  RH  023%=      5-min Rain = 0
KGU1 122323Z 32008KT 12/M08 A3016 RMK A01 T01241079  RH  024%=      5-min Rain = 0
KGU1 122324Z 32009KT 12/M08 A3016 RMK A01 T01241078  RH  024%=      5-min Rain = 0
KGU1 122325Z 32009KT 12/M08 A3016 RMK A01 T01241078  RH  024%=      5-min Rain = 0
KGU1 122326Z 31010KT 12/M08 A3016 RMK A01 T01231080  RH  024%=      5-min Rain = 0
KGU1 122327Z 32009KT 12/M08 A3016 RMK A01 T01221079  RH  024%=      5-min Rain = 0
KGU1 122328Z 32009KT 12/M08 A3016 RMK A01 T01221079  RH  024%=      5-min Rain = 0
KGU1 122329Z 33009KT 12/M08 A3016 RMK A01 T01221077  RH  024%=      5-min Rain = 0
KGU1 122330Z 33008KT 12/M08 A3016 RMK A01 T01221080  RH  024%=      5-min Rain = 0
KGU1 122331Z 32009KT 12/M08 A3016 RMK A01 T01211080  RH  024%=      5-min Rain = 0
KGU1 122332Z 31010KT 12/M08 A3016 RMK A01 T01201079  RH  024%=      5-min Rain = 0
KGU1 122333Z 31011KT 12/M08 A3016 RMK A01 T01191080  RH  024%=      5-min Rain = 0
KGU1 122334Z 32009KT 12/M08 A3016 RMK A01 T01181080  RH  025%=      5-min Rain = 0
KGU1 122335Z 32009KT 12/M08 A3016 RMK A01 T01181079  RH  025%=      5-min Rain = 0
KGU1 122336Z 32011KT 12/M08 A3016 RMK A01 T01171081  RH  025%=      5-min Rain = 0
KGU1 122337Z 32012KT 12/M08 A3016 RMK A01 T01161081  RH  025%=      5-min Rain = 0
KGU1 122338Z 31013KT 12/M08 A3016 RMK A01 T01161082  RH  025%=      5-min Rain = 0
KGU1 122339Z 32012G17KT 12/M08 A3016 RMK A01 T01151081  RH  025%=      5-min Rain = 0
KGU1 122340Z 31014KT 12/M08 A3016 RMK A01 T01151082  RH  025%=      5-min Rain = 0
KGU1 122341Z 32014KT 12/M08 A3016 RMK A01 T01151083  RH  024%=      5-min Rain = 0
KGU1 122342Z 31011KT 12/M08 A3016 RMK A01 T01151083  RH  024%=      5-min Rain = 0
KGU1 122343Z 31011KT 12/M08 A3016 RMK A01 T01151082  RH  025%=      5-min Rain = 0
KGU1 122344Z 30014G19KT 12/M08 A3016 RMK A01 T01151083  RH  024%=      5-min Rain = 0
KGU1 122345Z 31013KT 12/M08 A3016 RMK A01 T01151083  RH  024%=      5-min Rain = 0
KGU1 122346Z 30015KT 12/M08 A3016 RMK A01 T01151084  RH  024%=      5-min Rain = 0
KGU1 122347Z 31012KT 12/M08 A3016 RMK A01 T01151084  RH  024%=      5-min Rain = 0
KGU1 122348Z 30011KT 12/M08 A3016 RMK A01 T01151083  RH  024%=      5-min Rain = 0
KGU1 122349Z 30010KT 11/M08 A3016 RMK A01 T01141082  RH  025%=      5-min Rain = 0
KGU1 122350Z 31011KT 11/M08 A3016 RMK A01 T01131081  RH  025%=      5-min Rain = 0
KGU1 122351Z 30012KT 11/M08 A3016 RMK A01 T01131084  RH  025%=      5-min Rain = 0
KGU1 122352Z 31013KT 11/M08 A3016 RMK A01 T01131083  RH  025%=      5-min Rain = 0
KGU1 122353Z 29012KT 11/M08 A3016 RMK A01 T01121083  RH  025%=      5-min Rain = 0
KGU1 122354Z 29008KT 11/M08 A3016 RMK A01 T01121083  RH  025%=      5-min Rain = 0
KGU1 122355Z 30010G15KT 11/M08 A3016 RMK A01 T01111083  RH  025%=      5-min Rain = 0
KGU1 122356Z 30011KT 11/M08 A3016 RMK A01 T01101082  RH  025%=      5-min Rain = 0
KGU1 122357Z 30012KT 11/M08 A3016 RMK A01 T01101082  RH  026%=      5-min Rain = 0
KGU1 122358Z 30014KT 11/M08 A3016 RMK A01 T01091082  RH  026%=      5-min Rain = 0
KGU1 122359Z 30014KT 11/M08 A3016 RMK A01 T01091083  RH  025%=      5-min Rain = 0
KGU1 130000Z 30016G21KT 11/M08 A3016 RMK A01 T01091082  RH  025%=      5-min Rain = 0
KGU1 130001Z 31014KT 11/M08 A3016 RMK A01 T01091082  RH  026%=      5-min Rain = 0
KGU1 130002Z 30016G21KT 11/M08 A3016 RMK A01 T01091081  RH  026%=      5-min Rain = 0
KGU1 130003Z 30015KT 11/M08 A3016 RMK A01 T01091083  RH  025%=      5-min Rain = 0
KGU1 130004Z 29014KT 11/M08 A3016 RMK A01 T01091083  RH  025%=      5-min Rain = 0
KGU1 130005Z 30015KT 11/M08 A3016 RMK A01 T01091082  RH  026%=      5-min Rain = 0
KGU1 130006Z 30015KT 11/M08 A3016 RMK A01 T01091083  RH  025%=      5-min Rain = 0
KGU1 130007Z 30014KT 11/M08 A3016 RMK A01 T01091081  RH  026%=      5-min Rain = 0
KGU1 130008Z 30015KT 11/M08 A3016 RMK A01 T01091081  RH  026%=      5-min Rain = 0
KGU1 130009Z 29015KT 11/M08 A3016 RMK A01 T01081082  RH  026%=      5-min Rain = 0
KGU1 130010Z 28017KT 11/M08 A3016 RMK A01 T01091083  RH  025%=      5-min Rain = 0
KGU1 130011Z 28013KT 11/M08 A3016 RMK A01 T01091082  RH  026%=      5-min Rain = 0
KGU1 130012Z 29017G22KT 11/M08 A3016 RMK A01 T01081081  RH  026%=      5-min Rain = 0
KGU1 130013Z 29017G22KT 11/M08 A3016 RMK A01 T01081082  RH  026%=      5-min Rain = 0
KGU1 130014Z 29018G24KT 11/M08 A3016 RMK A01 T01091083  RH  026%=      5-min Rain = 0
KGU1 130015Z 29018G24KT 11/M08 A3016 RMK A01 T01091082  RH  026%=      5-min Rain = 0
KGU1 130016Z 29018KT 11/M08 A3016 RMK A01 T01091082  RH  026%=      5-min Rain = 0
KGU1 130017Z 29017KT 11/M08 A3016 RMK A01 T01081081  RH  026%=      5-min Rain = 0
KGU1 130018Z 30018G23KT 11/M08 A3016 RMK A01 T01081082  RH  026%=      5-min Rain = 0
KGU1 130019Z 30017KT 11/M08 A3016 RMK A01 T01081081  RH  026%=      5-min Rain = 0
KGU1 130020Z 30018KT 11/M08 A3016 RMK A01 T01081081  RH  026%=      5-min Rain = 0
KGU1 130021Z 30020KT 11/M08 A3016 RMK A01 T01091083  RH  026%=      5-min Rain = 0
KGU1 130022Z 30018KT 11/M08 A3016 RMK A01 T01091082  RH  026%=      5-min Rain = 0
KGU1 130023Z 30019KT 11/M08 A3016 RMK A01 T01091082  RH  026%=      5-min Rain = 0
KGU1 130024Z 30016KT 11/M08 A3016 RMK A01 T01081080  RH  026%=      5-min Rain = 0
KGU1 130025Z 31017KT 11/M08 A3016 RMK A01 T01071080  RH  026%=      5-min Rain = 0
KGU1 130026Z 30017KT 11/M08 A3016 RMK A01 T01071081  RH  026%=      5-min Rain = 0
KGU1 130027Z 30019KT 11/M08 A3016 RMK A01 T01071080  RH  026%=      5-min Rain = 0
KGU1 130028Z 31018KT 11/M08 A3016 RMK A01 T01081081  RH  026%=      5-min Rain = 0
KGU1 130029Z 30019G24KT 11/M08 A3016 RMK A01 T01081081  RH  026%=      5-min Rain = 0
KGU1 130030Z 30020KT 11/M08 A3016 RMK A01 T01081082  RH  026%=      5-min Rain = 0
KGU1 130031Z 30020KT 11/M08 A3016 RMK A01 T01091082  RH  026%=      5-min Rain = 0
KGU1 130032Z 30021KT 11/M08 A3016 RMK A01 T01101083  RH  025%=      5-min Rain = 0
KGU1 130033Z 30018KT 11/M08 A3016 RMK A01 T01091082  RH  026%=      5-min Rain = 0
KGU1 130034Z 30015KT 11/M08 A3016 RMK A01 T01081081  RH  026%=      5-min Rain = 0
KGU1 130035Z 30016G21KT 11/M08 A3016 RMK A01 T01071080  RH  026%=      5-min Rain = 0
KGU1 130036Z 31016G22KT 11/M08 A3016 RMK A01 T01071081  RH  026%=      5-min Rain = 0
KGU1 130037Z 31017KT 11/M08 A3016 RMK A01 T01081082  RH  026%=      5-min Rain = 0
KGU1 130038Z 30017G24KT 11/M08 A3017 RMK A01 T01081082  RH  026%=      5-min Rain = 0
KGU1 130039Z 30021KT 11/M08 A3016 RMK A01 T01081082  RH  026%=      5-min Rain = 0
KGU1 130040Z 30020KT 11/M08 A3016 RMK A01 T01081081  RH  026%=      5-min Rain = 0
KGU1 130041Z 30021KT 11/M08 A3017 RMK A01 T01091082  RH  026%=      5-min Rain = 0
KGU1 130042Z 31020G25KT 11/M08 A3017 RMK A01 T01091082  RH  025%=      5-min Rain = 0
KGU1 130043Z 30023KT 11/M08 A3017 RMK A01 T01101082  RH  025%=      5-min Rain = 0
KGU1 130044Z 30019KT 11/M08 A3017 RMK A01 T01101082  RH  025%=      5-min Rain = 0
KGU1 130045Z 30017G22KT 11/M08 A3017 RMK A01 T01091081  RH  026%=      5-min Rain = 0
KGU1 130046Z 30018KT 11/M08 A3017 RMK A01 T01091081  RH  026%=      5-min Rain = 0
KGU1 130047Z 31017KT 11/M08 A3017 RMK A01 T01091081  RH  026%=      5-min Rain = 0
KGU1 130048Z 30016KT 11/M08 A3017 RMK A01 T01081081  RH  026%=      5-min Rain = 0
KGU1 130049Z 31018G23KT 11/M08 A3017 RMK A01 T01071081  RH  026%=      5-min Rain = 0
KGU1 130050Z 31022KT 11/M08 A3018 RMK A01 T01081082  RH  026%=      5-min Rain = 0
KGU1 130051Z 30018G24KT 11/M08 A3018 RMK A01 T01091082  RH  026%=      5-min Rain = 0
KGU1 130052Z 30015KT 11/M08 A3018 RMK A01 T01081080  RH  026%=      5-min Rain = 0
KGU1 130053Z 31018KT 11/M08 A3018 RMK A01 T01071081  RH  026%=      5-min Rain = 0
KGU1 130054Z 30018KT 11/M08 A3018 RMK A01 T01081080  RH  026%=      5-min Rain = 0
KGU1 130055Z 30016KT 11/M08 A3018 RMK A01 T01081081  RH  026%=      5-min Rain = 0
KGU1 130056Z 31017KT 11/M08 A3018 RMK A01 T01081081  RH  026%=      5-min Rain = 0
KGU1 130057Z 30017KT 11/M08 A3018 RMK A01 T01091081  RH  026%=      5-min Rain = 0
KGU1 130058Z 32015KT 11/M08 A3018 RMK A01 T01091080  RH  026%=      5-min Rain = 0
KGU1 130059Z 31015G24KT 11/M08 A3018 RMK A01 T01081080  RH  026%=      5-min Rain = 0
KGU1 130100Z 31017KT 11/M08 A3018 RMK A01 T01081080  RH  026%=      5-min Rain = 0
KGU1 130101Z 30015KT 11/M08 A3018 RMK A01 T01081080  RH  026%=      5-min Rain = 0
KGU1 130102Z 30018G24KT 11/M08 A3018 RMK A01 T01071080  RH  026%=      5-min Rain = 0
KGU1 130103Z 30016G21KT 11/M08 A3018 RMK A01 T01071080  RH  026%=      5-min Rain = 0
KGU1 130104Z 29017KT 11/M08 A3018 RMK A01 T01071079  RH  026%=      5-min Rain = 0
KGU1 130105Z 30019G24KT 11/M08 A3018 RMK A01 T01071080  RH  026%=      5-min Rain = 0
KGU1 130106Z 30017KT 11/M08 A3018 RMK A01 T01071079  RH  026%=      5-min Rain = 0
KGU1 130107Z 30020KT 11/M08 A3018 RMK A01 T01081080  RH  026%=      5-min Rain = 0
KGU1 130108Z 30019KT 11/M08 A3018 RMK A01 T01081080  RH  026%=      5-min Rain = 0
KGU1 130109Z 30019KT 11/M08 A3018 RMK A01 T01081079  RH  026%=      5-min Rain = 0
KGU1 130110Z 30015KT 11/M08 A3018 RMK A01 T01071078  RH  027%=      5-min Rain = 0
KGU1 130111Z 30017G22KT 11/M08 A3018 RMK A01 T01051078  RH  027%=      5-min Rain = 0
KGU1 130112Z 30019KT 11/M08 A3018 RMK A01 T01061080  RH  027%=      5-min Rain = 0
KGU1 130113Z 30019KT 11/M08 A3018 RMK A01 T01071080  RH  027%=      5-min Rain = 0
KGU1 130114Z 30017KT 11/M08 A3018 RMK A01 T01061079  RH  027%=      5-min Rain = 0
KGU1 130115Z 30019G25KT 11/M08 A3018 RMK A01 T01061080  RH  027%=      5-min Rain = 0
KGU1 130116Z 30019KT 11/M08 A3018 RMK A01 T01071080  RH  026%=      5-min Rain = 0
KGU1 130117Z 30017G22KT 11/M08 A3018 RMK A01 T01061079  RH  027%=      5-min Rain = 0
KGU1 130118Z 31017KT 11/M08 A3018 RMK A01 T01061079  RH  027%=      5-min Rain = 0
KGU1 130119Z 31019G25KT 11/M08 A3019 RMK A01 T01071080  RH  026%=      5-min Rain = 0
KGU1 130120Z 30018KT 11/M08 A3018 RMK A01 T01071079  RH  027%=      5-min Rain = 0
KGU1 130121Z 31016KT 11/M08 A3018 RMK A01 T01061078  RH  027%=      5-min Rain = 0
KGU1 130122Z 30017G22KT 11/M08 A3018 RMK A01 T01051079  RH  027%=      5-min Rain = 0
KGU1 130123Z 31019KT 11/M08 A3018 RMK A01 T01061080  RH  027%=      5-min Rain = 0
KGU1 130124Z 31018KT 11/M08 A3018 RMK A01 T01071080  RH  026%=      5-min Rain = 0
KGU1 130125Z 31017G23KT 11/M08 A3018 RMK A01 T01071080  RH  027%=      5-min Rain = 0
KGU1 130126Z 31019KT 11/M08 A3018 RMK A01 T01071080  RH  026%=      5-min Rain = 0
KGU1 130127Z 30021KT 11/M08 A3018 RMK A01 T01081080  RH  026%=      5-min Rain = 0
KGU1 130128Z 31018KT 11/M08 A3018 RMK A01 T01091081  RH  026%=      5-min Rain = 0
KGU1 130129Z 30016KT 11/M08 A3018 RMK A01 T01081080  RH  026%=      5-min Rain = 0
KGU1 130130Z 30017G23KT 11/M08 A3018 RMK A01 T01071079  RH  027%=      5-min Rain = 0
KGU1 130131Z 31020KT 11/M08 A3018 RMK A01 T01071081  RH  026%=      5-min Rain = 0
KGU1 130132Z 30018KT 11/M08 A3018 RMK A01 T01081080  RH  026%=      5-min Rain = 0
KGU1 130133Z 30022KT 11/M08 A3018 RMK A01 T01071080  RH  026%=      5-min Rain = 0
KGU1 130134Z 30021KT 11/M08 A3019 RMK A01 T01081080  RH  026%=      5-min Rain = 0
KGU1 130135Z 31020KT 11/M08 A3019 RMK A01 T01081081  RH  026%=      5-min Rain = 0
KGU1 130136Z 31020KT 11/M08 A3019 RMK A01 T01091082  RH  026%=      5-min Rain = 0
KGU1 130137Z 31019KT 11/M08 A3019 RMK A01 T01101082  RH  025%=      5-min Rain = 0
KGU1 130138Z 30016KT 11/M08 A3019 RMK A01 T01091081  RH  026%=      5-min Rain = 0
KGU1 130139Z 30015KT 11/M08 A3019 RMK A01 T01081080  RH  026%=      5-min Rain = 0
KGU1 130140Z 30016KT 11/M08 A3019 RMK A01 T01071080  RH  027%=      5-min Rain = 0
KGU1 130141Z 31014KT 11/M08 A3019 RMK A01 T01051079  RH  027%=      5-min Rain = 0
KGU1 130142Z 30019KT 11/M08 A3019 RMK A01 T01051081  RH  026%=      5-min Rain = 0
KGU1 130143Z 30019KT 11/M08 A3019 RMK A01 T01071081  RH  026%=      5-min Rain = 0
KGU1 130144Z 30016KT 11/M08 A3019 RMK A01 T01071080  RH  026%=      5-min Rain = 0
KGU1 130145Z 30021KT 11/M08 A3019 RMK A01 T01071082  RH  026%=      5-min Rain = 0
KGU1 130146Z 31019G24KT 11/M08 A302 RMK A01 T01091083  RH  025%=      5-min Rain = 0
KGU1 130147Z 30016G22KT 11/M08 A3019 RMK A01 T01101082  RH  026%=      5-min Rain = 0
KGU1 130148Z 30017KT 11/M08 A3019 RMK A01 T01091082  RH  026%=      5-min Rain = 0
KGU1 130149Z 30016KT 11/M08 A3019 RMK A01 T01081081  RH  026%=      5-min Rain = 0
KGU1 130150Z 31017KT 11/M08 A302 RMK A01 T01081082  RH  026%=      5-min Rain = 0
KGU1 130151Z 31015KT 11/M08 A302 RMK A01 T01081082  RH  026%=      5-min Rain = 0
KGU1 130152Z 30016KT 11/M08 A3019 RMK A01 T01081082  RH  026%=      5-min Rain = 0
KGU1 130153Z 30015KT 11/M08 A3019 RMK A01 T01081082  RH  026%=      5-min Rain = 0
KGU1 130154Z 30016KT 11/M08 A302 RMK A01 T01081081  RH  026%=      5-min Rain = 0
KGU1 130155Z 30016KT 11/M08 A3019 RMK A01 T01081081  RH  026%=      5-min Rain = 0
KGU1 130156Z 30017KT 11/M08 A302 RMK A01 T01071081  RH  026%=      5-min Rain = 0
KGU1 130157Z 31015KT 11/M08 A302 RMK A01 T01061080  RH  027%=      5-min Rain = 0
KGU1 130158Z 31017G23KT 11/M08 A302 RMK A01 T01051080  RH  027%=      5-min Rain = 0
KGU1 130159Z 31016G21KT 11/M08 A302 RMK A01 T01071081  RH  026%=      5-min Rain = 0
KGU1 130200Z 31019KT 11/M08 A302 RMK A01 T01071081  RH  026%=      5-min Rain = 0
KGU1 130201Z 31018KT 11/M08 A302 RMK A01 T01081081  RH  026%=      5-min Rain = 0
KGU1 130202Z 31017G23KT 11/M08 A302 RMK A01 T01081081  RH  026%=      5-min Rain = 0
KGU1 130203Z 31018G23KT 11/M08 A3021 RMK A01 T01101083  RH  025%=      5-min Rain = 0
KGU1 130204Z 31020KT 11/M08 A3021 RMK A01 T01101083  RH  025%=      5-min Rain = 0
KGU1 130205Z 31017KT 11/M08 A3021 RMK A01 T01111083  RH  025%=      5-min Rain = 0
KGU1 130206Z 31018KT 11/M08 A3021 RMK A01 T01111082  RH  025%=      5-min Rain = 0
KGU1 130207Z 31017KT 11/M08 A3021 RMK A01 T01101081  RH  026%=      5-min Rain = 0
KGU1 130208Z 31016KT 11/M08 A3021 RMK A01 T01101081  RH  026%=      5-min Rain = 0
KGU1 130209Z 31019KT 11/M08 A3021 RMK A01 T01101082  RH  026%=      5-min Rain = 0
KGU1 130210Z 31018KT 11/M08 A3021 RMK A01 T01101080  RH  026%=      5-min Rain = 0
KGU1 130211Z 30020KT 11/M08 A3021 RMK A01 T01101082  RH  026%=      5-min Rain = 0
KGU1 130212Z 30017KT 11/M08 A3021 RMK A01 T01101080  RH  026%=      5-min Rain = 0
KGU1 130213Z 30019KT 11/M08 A3021 RMK A01 T01091080  RH  026%=      5-min Rain = 0
KGU1 130214Z 31016G21KT 11/M08 A3021 RMK A01 T01091080  RH  026%=      5-min Rain = 0
KGU1 130215Z 31016KT 11/M08 A3021 RMK A01 T01091080  RH  026%=      5-min Rain = 0
KGU1 130216Z 31017G22KT 11/M08 A3021 RMK A01 T01081080  RH  026%=      5-min Rain = 0
KGU1 130217Z 31016KT 11/M08 A3021 RMK A01 T01081081  RH  026%=      5-min Rain = 0
KGU1 130218Z 31017G22KT 11/M08 A3021 RMK A01 T01081080  RH  026%=      5-min Rain = 0
KGU1 130219Z 31019KT 11/M08 A3021 RMK A01 T01081080  RH  026%=      5-min Rain = 0
KGU1 130220Z 31019KT 11/M08 A3021 RMK A01 T01091080  RH  026%=      5-min Rain = 0
KGU1 130221Z 31018KT 11/M08 A3021 RMK A01 T01091080  RH  026%=      5-min Rain = 0
KGU1 130222Z 31020KT 11/M08 A3021 RMK A01 T01091080  RH  026%=      5-min Rain = 0
KGU1 130223Z 31018KT 11/M08 A3021 RMK A01 T01091080  RH  026%=      5-min Rain = 0
KGU1 130224Z 31019KT 11/M08 A3022 RMK A01 T01091081  RH  026%=      5-min Rain = 0
KGU1 130225Z 31016KT 11/M08 A3022 RMK A01 T01101082  RH  026%=      5-min Rain = 0
KGU1 130226Z 30017KT 11/M08 A3021 RMK A01 T01101081  RH  026%=      5-min Rain = 0
KGU1 130227Z 31014KT 11/M08 A3022 RMK A01 T01101081  RH  026%=      5-min Rain = 0
KGU1 130228Z 32016KT 11/M08 A3022 RMK A01 T01101082  RH  025%=      5-min Rain = 0
KGU1 130229Z 31016KT 11/M08 A3022 RMK A01 T01111082  RH  025%=      5-min Rain = 0
KGU1 130230Z 31015KT 11/M08 A3022 RMK A01 T01121082  RH  025%=      5-min Rain = 0
KGU1 130231Z 32011KT 11/M08 A3022 RMK A01 T01111080  RH  026%=      5-min Rain = 0
KGU1 130232Z 33009KT 11/M08 A3023 RMK A01 T01101082  RH  025%=      5-min Rain = 0
KGU1 130233Z 32008G13KT 11/M08 A3023 RMK A01 T01101082  RH  026%=      5-min Rain = 0
KGU1 130234Z 31008KT 11/M08 A3023 RMK A01 T01091081  RH  026%=      5-min Rain = 0
KGU1 130235Z 34007G13KT 11/M08 A3023 RMK A01 T01081082  RH  026%=      5-min Rain = 0
KGU1 130236Z 33008KT 11/M08 A3023 RMK A01 T01091083  RH  025%=      5-min Rain = 0
KGU1 130237Z 33006KT 11/M08 A3023 RMK A01 T01101083  RH  025%=      5-min Rain = 0
KGU1 130238Z 04004KT 11/M08 A3023 RMK A01 T01091081  RH  026%=      5-min Rain = 0
KGU1 130239Z 06002KT 11/M08 A3024 RMK A01 T01081081  RH  026%=      5-min Rain = 0
KGU1 130240Z 10002KT 11/M08 A3024 RMK A01 T01071079  RH  027%=      5-min Rain = 0
KGU1 130241Z 11004KT 10/M08 A3024 RMK A01 T01041076  RH  028%=      5-min Rain = 0
KGU1 130242Z 10005KT 10/M08 A3024 RMK A01 T01011075  RH  029%=      5-min Rain = 0
KGU1 130243Z 11003KT 10/M08 A3024 RMK A01 T00991075  RH  029%=      5-min Rain = 0
KGU1 130244Z 14001KT 10/M08 A3024 RMK A01 T00971076  RH  029%=      5-min Rain = 0
KGU1 130245Z 11002KT 10/M08 A3024 RMK A01 T00961075  RH  030%=      5-min Rain = 0
KGU1 130246Z 10004KT 10/M08 A3024 RMK A01 T00951075  RH  030%=      5-min Rain = 0
KGU1 130247Z 13001KT 09/M08 A3024 RMK A01 T00941076  RH  030%=      5-min Rain = 0
KGU1 130248Z 10001KT 09/M08 A3024 RMK A01 T00931076  RH  030%=      5-min Rain = 0
KGU1 130249Z 01001KT 09/M08 A3024 RMK A01 T00921076  RH  030%=      5-min Rain = 0
KGU1 130250Z 01005KT 09/M08 A3024 RMK A01 T00911075  RH  030%=      5-min Rain = 0
KGU1 130251Z 00005KT 09/M08 A3024 RMK A01 T00891075  RH  031%=      5-min Rain = 0
KGU1 130252Z 05003KT 09/M08 A3024 RMK A01 T00891076  RH  031%=      5-min Rain = 0
KGU1 130253Z 12002KT 09/M08 A3024 RMK A01 T00891078  RH  030%=      5-min Rain = 0
KGU1 130254Z 18001KT 09/M08 A3024 RMK A01 T00911078  RH  030%=      5-min Rain = 0
KGU1 130255Z 19001KT 09/M08 A3024 RMK A01 T00921077  RH  030%=      5-min Rain = 0
KGU1 130256Z 20000KT 09/M08 A3024 RMK A01 T00911077  RH  030%=      5-min Rain = 0
KGU1 130257Z 20000KT 09/M08 A3024 RMK A01 T00901077  RH  030%=      5-min Rain = 0
KGU1 130258Z 00000KT 09/M08 A3024 RMK A01 T00901077  RH  030%=      5-min Rain = 0
KGU1 130259Z 00000KT 09/M08 A3024 RMK A01 T00891077  RH  030%=      5-min Rain = 0
KGU1 130300Z 12000KT 09/M08 A3024 RMK A01 T00891077  RH  030%=      5-min Rain = 0
KGU1 130301Z 10000KT 09/M08 A3024 RMK A01 T00891078  RH  030%=      5-min Rain = 0
KGU1 130302Z 04001KT 09/M08 A3025 RMK A01 T00901078  RH  030%=      5-min Rain = 0
KGU1 130303Z 01004KT 09/M08 A3025 RMK A01 T00901077  RH  030%=      5-min Rain = 0
KGU1 130304Z 36004KT 09/M08 A3025 RMK A01 T00881077  RH  031%=      5-min Rain = 0
KGU1 130305Z 02003KT 09/M08 A3025 RMK A01 T00891078  RH  030%=      5-min Rain = 0
KGU1 130306Z 04001KT 09/M08 A3025 RMK A01 T00901078  RH  030%=      5-min Rain = 0
KGU1 130307Z 04000KT 09/M08 A3025 RMK A01 T00911078  RH  030%=      5-min Rain = 0
KGU1 130308Z 22001KT 09/M08 A3025 RMK A01 T00901077  RH  030%=      5-min Rain = 0
KGU1 130309Z 25005KT 09/M08 A3025 RMK A01 T00881075  RH  031%=      5-min Rain = 0
KGU1 130310Z 26006KT 09/M08 A3025 RMK A01 T00861075  RH  032%=      5-min Rain = 0
KGU1 130311Z 24006KT 09/M08 A3025 RMK A01 T00851076  RH  032%=      5-min Rain = 0
KGU1 130312Z 24006KT 09/M08 A3025 RMK A01 T00851075  RH  032%=      5-min Rain = 0
KGU1 130313Z 25007KT 09/M08 A3025 RMK A01 T00851075  RH  032%=      5-min Rain = 0
KGU1 130314Z 26007KT 09/M08 A3025 RMK A01 T00851075  RH  032%=      5-min Rain = 0
KGU1 130315Z 26007KT 09/M08 A3025 RMK A01 T00861075  RH  032%=      5-min Rain = 0
KGU1 130316Z 27007KT 09/M08 A3025 RMK A01 T00851075  RH  032%=      5-min Rain = 0
KGU1 130317Z 27007KT 08/M07 A3025 RMK A01 T00841074  RH  032%=      5-min Rain = 0
KGU1 130318Z 26007KT 08/M07 A3025 RMK A01 T00821074  RH  033%=      5-min Rain = 0
KGU1 130319Z 26008KT 08/M08 A3025 RMK A01 T00831077  RH  032%=      5-min Rain = 0
KGU1 130320Z 26006KT 09/M08 A3025 RMK A01 T00851077  RH  031%=      5-min Rain = 0
KGU1 130321Z 26007KT 09/M07 A3025 RMK A01 T00851074  RH  032%=      5-min Rain = 0
KGU1 130322Z 24007KT 08/M08 A3026 RMK A01 T00841075  RH  032%=      5-min Rain = 0
KGU1 130323Z 24006KT 08/M08 A3026 RMK A01 T00841075  RH  032%=      5-min Rain = 0
KGU1 130324Z 27004KT 08/M08 A3026 RMK A01 T00831075  RH  032%=      5-min Rain = 0
KGU1 130325Z 30005KT 08/M08 A3026 RMK A01 T00821075  RH  033%=      5-min Rain = 0
KGU1 130326Z 28007KT 08/M08 A3026 RMK A01 T00801075  RH  033%=      5-min Rain = 0
KGU1 130327Z 26006KT 08/M08 A3026 RMK A01 T00811077  RH  032%=      5-min Rain = 0
KGU1 130328Z 27004KT 09/M08 A3026 RMK A01 T00851081  RH  030%=      5-min Rain = 0
KGU1 130329Z 26005KT 09/M08 A3026 RMK A01 T00891079  RH  030%=      5-min Rain = 0
KGU1 130330Z 26006KT 09/M08 A3026 RMK A01 T00881075  RH  031%=      5-min Rain = 0
KGU1 130331Z 27007KT 09/M08 A3026 RMK A01 T00851075  RH  032%=      5-min Rain = 0
KGU1 130332Z 26008KT 08/M07 A3026 RMK A01 T00821074  RH  033%=      5-min Rain = 0
KGU1 130333Z 25008KT 08/M08 A3026 RMK A01 T00811076  RH  032%=      5-min Rain = 0
KGU1 130334Z 26008KT 08/M08 A3026 RMK A01 T00831077  RH  032%=      5-min Rain = 0
KGU1 130335Z 26006KT 09/M08 A3026 RMK A01 T00851077  RH  031%=      5-min Rain = 0
KGU1 130336Z 26005KT 08/M08 A3026 RMK A01 T00841076  RH  032%=      5-min Rain = 0
KGU1 130337Z 25006KT 08/M08 A3027 RMK A01 T00821075  RH  033%=      5-min Rain = 0
KGU1 130338Z 25006KT 08/M08 A3027 RMK A01 T00801075  RH  033%=      5-min Rain = 0
KGU1 130339Z 21003KT 08/M08 A3027 RMK A01 T00791075  RH  033%=      5-min Rain = 0
KGU1 130340Z 11005KT 08/M07 A3027 RMK A01 T00781073  RH  034%=      5-min Rain = 0
KGU1 130341Z 11006KT 08/M07 A3028 RMK A01 T00761073  RH  034%=      5-min Rain = 0
KGU1 130342Z 17004KT 08/M08 A3028 RMK A01 T00771078  RH  033%=      5-min Rain = 0
KGU1 130343Z 22004KT 08/M08 A3028 RMK A01 T00801079  RH  032%=      5-min Rain = 0
KGU1 130344Z 23005KT 08/M08 A3027 RMK A01 T00841079  RH  031%=      5-min Rain = 0
KGU1 130345Z 24006KT 09/M08 A3027 RMK A01 T00851077  RH  031%=      5-min Rain = 0
KGU1 130346Z 24007KT 09/M08 A3027 RMK A01 T00861077  RH  031%=      5-min Rain = 0
KGU1 130347Z 25007KT 09/M08 A3027 RMK A01 T00861076  RH  031%=      5-min Rain = 0
KGU1 130348Z 27006KT 09/M08 A3027 RMK A01 T00861075  RH  032%=      5-min Rain = 0
KGU1 130349Z 26006KT 08/M08 A3027 RMK A01 T00841075  RH  032%=      5-min Rain = 0
KGU1 130350Z 25006KT 08/M08 A3028 RMK A01 T00831077  RH  032%=      5-min Rain = 0
KGU1 130351Z 25005KT 09/M08 A3027 RMK A01 T00851079  RH  031%=      5-min Rain = 0
KGU1 130352Z 25005KT 09/M08 A3028 RMK A01 T00861079  RH  031%=      5-min Rain = 0
KGU1 130353Z 27006KT 09/M08 A3028 RMK A01 T00871079  RH  030%=      5-min Rain = 0
KGU1 130354Z 27006KT 09/M08 A3028 RMK A01 T00851076  RH  032%=      5-min Rain = 0
KGU1 130355Z 25005KT 08/M08 A3028 RMK A01 T00811076  RH  032%=      5-min Rain = 0
KGU1 130356Z 26004KT 08/M08 A3028 RMK A01 T00801078  RH  032%=      5-min Rain = 0
KGU1 130357Z 28003KT 08/M08 A3028 RMK A01 T00801078  RH  032%=      5-min Rain = 0
KGU1 130358Z 30003KT 08/M08 A3028 RMK A01 T00811079  RH  032%=      5-min Rain = 0
KGU1 130359Z 27004KT 08/M08 A3028 RMK A01 T00811079  RH  032%=      5-min Rain = 0
KGU1 130400Z 29005KT 08/M08 A3028 RMK A01 T00811079  RH  032%=      5-min Rain = 0
KGU1 130401Z 28006KT 08/M08 A3028 RMK A01 T00791079  RH  032%=      5-min Rain = 0
KGU1 130402Z 26006KT 08/M08 A3028 RMK A01 T00781079  RH  032%=      5-min Rain = 0
KGU1 130403Z 28004KT 08/M08 A3028 RMK A01 T00781080  RH  032%=      5-min Rain = 0
KGU1 130404Z 30004KT 08/M08 A3028 RMK A01 T00801080  RH  032%=      5-min Rain = 0
KGU1 130405Z 31005KT 08/M08 A3028 RMK A01 T00781079  RH  032%=      5-min Rain = 0
KGU1 130406Z 31005KT 08/M08 A3028 RMK A01 T00771078  RH  033%=      5-min Rain = 0
KGU1 130407Z 31006KT 08/M08 A3028 RMK A01 T00751077  RH  033%=      5-min Rain = 0
KGU1 130408Z 34005KT 07/M08 A3028 RMK A01 T00721076  RH  034%=      5-min Rain = 0
KGU1 130409Z 04003KT 07/M08 A3028 RMK A01 T00701076  RH  035%=      5-min Rain = 0
KGU1 130410Z 35003KT 07/M08 A3028 RMK A01 T00691077  RH  035%=      5-min Rain = 0
KGU1 130411Z 35004KT 07/M08 A3028 RMK A01 T00691080  RH  034%=      5-min Rain = 0
KGU1 130412Z 00005KT 07/M08 A3029 RMK A01 T00741083  RH  032%=      5-min Rain = 0
KGU1 130413Z 34004KT 08/M08 A3028 RMK A01 T00821084  RH  030%=      5-min Rain = 0
KGU1 130414Z 01003KT 09/M08 A3028 RMK A01 T00851083  RH  030%=      5-min Rain = 0
KGU1 130415Z 31004KT 09/M08 A3028 RMK A01 T00861083  RH  030%=      5-min Rain = 0
KGU1 130416Z 35004KT 09/M08 A3029 RMK A01 T00871084  RH  029%=      5-min Rain = 0
KGU1 130417Z 33001KT 09/M08 A3029 RMK A01 T00881084  RH  029%=      5-min Rain = 0
KGU1 130418Z 31004KT 09/M08 A3029 RMK A01 T00891083  RH  029%=      5-min Rain = 0
KGU1 130419Z 32005KT 09/M08 A3029 RMK A01 T00891083  RH  029%=      5-min Rain = 0
KGU1 130420Z 32005KT 09/M08 A3029 RMK A01 T00881082  RH  030%=      5-min Rain = 0
KGU1 130421Z 33004KT 09/M08 A3029 RMK A01 T00871081  RH  030%=      5-min Rain = 0
KGU1 130422Z 34004KT 09/M08 A3029 RMK A01 T00861082  RH  030%=      5-min Rain = 0
KGU1 130423Z 35002KT 09/M08 A3029 RMK A01 T00861083  RH  030%=      5-min Rain = 0
KGU1 130424Z 01002KT 09/M08 A3029 RMK A01 T00871084  RH  029%=      5-min Rain = 0
KGU1 130425Z 36005KT 09/M08 A3029 RMK A01 T00881083  RH  029%=      5-min Rain = 0
KGU1 130426Z 36005KT 09/M08 A3029 RMK A01 T00901084  RH  029%=      5-min Rain = 0
KGU1 130427Z 33006KT 09/M08 A3029 RMK A01 T00911083  RH  029%=      5-min Rain = 0
KGU1 130428Z 30005KT 09/M08 A3029 RMK A01 T00921084  RH  028%=      5-min Rain = 0
KGU1 130429Z 31004KT 09/M08 A3029 RMK A01 T00931082  RH  028%=      5-min Rain = 0
KGU1 130430Z 32004KT 09/M08 A3029 RMK A01 T00911081  RH  029%=      5-min Rain = 0
KGU1 130431Z 32005KT 09/M08 A3029 RMK A01 T00891080  RH  030%=      5-min Rain = 0
KGU1 130432Z 31005KT 09/M08 A3029 RMK A01 T00871081  RH  030%=      5-min Rain = 0
KGU1 130433Z 33005KT 09/M08 A3029 RMK A01 T00871080  RH  030%=      5-min Rain = 0
KGU1 130434Z 33004KT 09/M08 A3029 RMK A01 T00871081  RH  030%=      5-min Rain = 0
KGU1 130435Z 35004KT 09/M08 A3029 RMK A01 T00871081  RH  030%=      5-min Rain = 0
KGU1 130436Z 01003KT 09/M08 A3029 RMK A01 T00871082  RH  030%=      5-min Rain = 0
KGU1 130437Z 01004KT 09/M08 A3029 RMK A01 T00871082  RH  030%=      5-min Rain = 0
KGU1 130438Z 02003KT 09/M08 A303 RMK A01 T00891081  RH  030%=      5-min Rain = 0
KGU1 130439Z 05003KT 09/M08 A3029 RMK A01 T00891084  RH  029%=      5-min Rain = 0
KGU1 130440Z 05002KT 09/M08 A3029 RMK A01 T00911083  RH  029%=      5-min Rain = 0
KGU1 130441Z 05001KT 09/M08 A3029 RMK A01 T00911083  RH  029%=      5-min Rain = 0
KGU1 130442Z 05000KT 09/M08 A3029 RMK A01 T00911083  RH  029%=      5-min Rain = 0
KGU1 130443Z 05001KT 09/M08 A303 RMK A01 T00911083  RH  029%=      5-min Rain = 0
KGU1 130444Z 08001KT 09/M08 A303 RMK A01 T00911083  RH  029%=      5-min Rain = 0
KGU1 130445Z 07001KT 09/M08 A303 RMK A01 T00901082  RH  029%=      5-min Rain = 0
KGU1 130446Z 06002KT 09/M08 A303 RMK A01 T00901083  RH  029%=      5-min Rain = 0
KGU1 130447Z 05002KT 09/M08 A303 RMK A01 T00901082  RH  029%=      5-min Rain = 0
KGU1 130448Z 05001KT 09/M08 A303 RMK A01 T00911082  RH  029%=      5-min Rain = 0
KGU1 130449Z 05001KT 09/M08 A303 RMK A01 T00901082  RH  029%=      5-min Rain = 0
KGU1 130450Z 06001KT 09/M08 A303 RMK A01 T00901082  RH  029%=      5-min Rain = 0
KGU1 130451Z 06001KT 09/M08 A303 RMK A01 T00901083  RH  029%=      5-min Rain = 0
KGU1 130452Z 06000KT 09/M08 A303 RMK A01 T00901083  RH  029%=      5-min Rain = 0
KGU1 130453Z 03001KT 09/M08 A303 RMK A01 T00901082  RH  029%=      5-min Rain = 0
KGU1 130454Z 04001KT 09/M08 A303 RMK A01 T00891081  RH  030%=      5-min Rain = 0
KGU1 130455Z 03001KT 09/M08 A303 RMK A01 T00881081  RH  030%=      5-min Rain = 0
KGU1 130456Z 03000KT 09/M08 A303 RMK A01 T00881081  RH  030%=      5-min Rain = 0
KGU1 130457Z 02000KT 09/M08 A303 RMK A01 T00881082  RH  030%=      5-min Rain = 0
KGU1 130458Z 31001KT 09/M08 A303 RMK A01 T00881081  RH  030%=      5-min Rain = 0
KGU1 130459Z 34002KT 09/M08 A303 RMK A01 T00871081  RH  030%=      5-min Rain = 0
KGU1 130500Z 35000KT 09/M08 A303 RMK A01 T00861082  RH  030%=      5-min Rain = 0
KGU1 130501Z 04001KT 09/M08 A303 RMK A01 T00851081  RH  030%=      5-min Rain = 0
KGU1 130502Z 02002KT 09/M08 A303 RMK A01 T00851081  RH  030%=      5-min Rain = 0
KGU1 130503Z 34004KT 08/M08 A3031 RMK A01 T00841080  RH  031%=      5-min Rain = 0
KGU1 130504Z 34004KT 08/M08 A3031 RMK A01 T00831079  RH  031%=      5-min Rain = 0
KGU1 130505Z 33004KT 08/M08 A3031 RMK A01 T00811076  RH  032%=      5-min Rain = 0
KGU1 130506Z 30003KT 08/M08 A3031 RMK A01 T00791078  RH  032%=      5-min Rain = 0
KGU1 130507Z 29003KT 08/M08 A3031 RMK A01 T00801078  RH  032%=      5-min Rain = 0
KGU1 130508Z 30004KT 08/M08 A3031 RMK A01 T00791078  RH  032%=      5-min Rain = 0
KGU1 130509Z 31003KT 08/M08 A3031 RMK A01 T00821078  RH  032%=      5-min Rain = 0
KGU1 130510Z 31004KT 08/M08 A3031 RMK A01 T00841078  RH  031%=      5-min Rain = 0
KGU1 130511Z 30003KT 09/M08 A3031 RMK A01 T00891080  RH  030%=      5-min Rain = 0
KGU1 130512Z 32005KT 09/M08 A3031 RMK A01 T00931080  RH  029%=      5-min Rain = 0
KGU1 130513Z 34003KT 10/M08 A3031 RMK A01 T00971081  RH  028%=      5-min Rain = 0
KGU1 130514Z 35005KT 10/M08 A3031 RMK A01 T00981080  RH  028%=      5-min Rain = 0
KGU1 130515Z 34004KT 10/M08 A3031 RMK A01 T01001079  RH  028%=      5-min Rain = 0
KGU1 130516Z 33002KT 10/M08 A3031 RMK A01 T00991078  RH  028%=      5-min Rain = 0
KGU1 130517Z 34003KT 10/M08 A3031 RMK A01 T01001079  RH  028%=      5-min Rain = 0
KGU1 130518Z 35003KT 10/M08 A3031 RMK A01 T00991078  RH  028%=      5-min Rain = 0
KGU1 130519Z 35003KT 10/M08 A3031 RMK A01 T00981077  RH  029%=      5-min Rain = 0
KGU1 130520Z 33003KT 10/M08 A3031 RMK A01 T00961078  RH  029%=      5-min Rain = 0
KGU1 130521Z 32004KT 10/M08 A3031 RMK A01 T00951077  RH  029%=      5-min Rain = 0
KGU1 130522Z 31005KT 09/M08 A3031 RMK A01 T00941079  RH  029%=      5-min Rain = 0
KGU1 130523Z 28003KT 10/M08 A3031 RMK A01 T00971080  RH  028%=      5-min Rain = 0
KGU1 130524Z 33004KT 10/M08 A3031 RMK A01 T00981078  RH  028%=      5-min Rain = 0
KGU1 130525Z 33002KT 10/M08 A3031 RMK A01 T01001079  RH  028%=      5-min Rain = 0
KGU1 130526Z 35004KT 10/M08 A3031 RMK A01 T01001079  RH  028%=      5-min Rain = 0
KGU1 130527Z 02004KT 10/M08 A3031 RMK A01 T01031079  RH  027%=      5-min Rain = 0
KGU1 130528Z 03005KT 10/M08 A3031 RMK A01 T01021077  RH  028%=      5-min Rain = 0
KGU1 130529Z 04003KT 10/M08 A3031 RMK A01 T01011075  RH  028%=      5-min Rain = 0
KGU1 130530Z 03001KT 10/M08 A3031 RMK A01 T00991076  RH  029%=      5-min Rain = 0
KGU1 130531Z 08001KT 10/M08 A3031 RMK A01 T00981076  RH  029%=      5-min Rain = 0
KGU1 130532Z 02001KT 10/M08 A3031 RMK A01 T00981077  RH  029%=      5-min Rain = 0
KGU1 130533Z 34002KT 10/M08 A3031 RMK A01 T00991078  RH  028%=      5-min Rain = 0
KGU1 130534Z 35004KT 10/M08 A3031 RMK A01 T00991078  RH  028%=      5-min Rain = 0
KGU1 130535Z 36003KT 10/M08 A3031 RMK A01 T00981077  RH  029%=      5-min Rain = 0
KGU1 130536Z 34003KT 10/M08 A3032 RMK A01 T00971077  RH  029%=      5-min Rain = 0
KGU1 130537Z 34003KT 10/M08 A3032 RMK A01 T00961077  RH  029%=      5-min Rain = 0
KGU1 130538Z 01003KT 09/M08 A3032 RMK A01 T00941077  RH  029%=      5-min Rain = 0
KGU1 130539Z 35004KT 09/M08 A3032 RMK A01 T00931077  RH  030%=      5-min Rain = 0
KGU1 130540Z 01003KT 09/M08 A3032 RMK A01 T00931077  RH  030%=      5-min Rain = 0
KGU1 130541Z 02005KT 09/M08 A3032 RMK A01 T00931077  RH  030%=      5-min Rain = 0
KGU1 130542Z 02005KT 09/M08 A3032 RMK A01 T00941076  RH  030%=      5-min Rain = 0
KGU1 130543Z 02005KT 09/M08 A3032 RMK A01 T00931075  RH  030%=      5-min Rain = 0
KGU1 130544Z 36005KT 09/M07 A3032 RMK A01 T00911074  RH  031%=      5-min Rain = 0
KGU1 130545Z 36005KT 09/M07 A3032 RMK A01 T00891073  RH  031%=      5-min Rain = 0
KGU1 130546Z 35004KT 09/M07 A3032 RMK A01 T00881074  RH  031%=      5-min Rain = 0
KGU1 130547Z 35006KT 09/M07 A3032 RMK A01 T00871074  RH  032%=      5-min Rain = 0
KGU1 130548Z 35006KT 09/M07 A3032 RMK A01 T00871074  RH  032%=      5-min Rain = 0
KGU1 130549Z 35005KT 09/M07 A3032 RMK A01 T00891074  RH  031%=      5-min Rain = 0
KGU1 130550Z 01005KT 09/M07 A3032 RMK A01 T00901074  RH  031%=      5-min Rain = 0
KGU1 130551Z 03005KT 09/M07 A3032 RMK A01 T00901073  RH  031%=      5-min Rain = 0
KGU1 130552Z 03006KT 09/M07 A3033 RMK A01 T00891073  RH  031%=      5-min Rain = 0
KGU1 130553Z 03005KT 09/M07 A3033 RMK A01 T00881074  RH  032%=      5-min Rain = 0
KGU1 130554Z 03005KT 09/M07 A3033 RMK A01 T00871073  RH  032%=      5-min Rain = 0
KGU1 130555Z 02004KT 09/M07 A3032 RMK A01 T00861073  RH  032%=      5-min Rain = 0
KGU1 130556Z 36005KT 08/M07 A3032 RMK A01 T00841073  RH  032%=      5-min Rain = 0
KGU1 130557Z 36006KT 08/M07 A3033 RMK A01 T00831073  RH  033%=      5-min Rain = 0
KGU1 130558Z 36006KT 08/M07 A3033 RMK A01 T00821073  RH  033%=      5-min Rain = 0
KGU1 130559Z 35005KT 08/M07 A3033 RMK A01 T00831074  RH  033%=      5-min Rain = 0

Page generated in 0.127 seconds.